CKS263 KCVG-EBBR
Flight info
| Callsign | CKS263 |
|---|---|
| Flight time | 7h 23m |
| Altitude | 33000 |
| Route | HAGOL5 PLASH DCT DJB DCT DERLO Q907 SIKBO DCT OLABA Q951 SSENA DCT TAFFY N577A TUDEP/M083F350 DCT 52N050W 53N040W 54N030W 55N020W DCT RESNO DCT NETKI/N0471F350 DCT KORAK DCT MORAG DCT NUCHU L607 BIG/N0470F290 Q70 VABIK/N0425F230 Q70 KOK |
| Aircraft | B77L/H-SDE1E2E3FGHIJ2J3J4J5M1RWXY/LB1D1 |
Departure
| Time | 2026-05-06 13:14 |
|---|---|
| Airport | Cincinnati Northern Kentucky International Airport (KCVG) |
Arrival
| Time | 2026-05-06 20:37 |
|---|---|
| Airport | Brussels Airport (EBBR) |
| Time | Latitude | Longitude | Altitude | Speed | Heading |
|---|---|---|---|---|---|
| 2026-05-06 12:39 | 39.02760 | -84.65099 | 883 ft | 0 kts | 270° |
| 2026-05-06 13:04 | 39.02760 | -84.65079 | 883 ft | 4 kts | 270° |
| 2026-05-06 13:05 | 39.02760 | -84.65046 | 883 ft | 2 kts | 270° |
| 2026-05-06 13:05 | 39.02757 | -84.65018 | 883 ft | 4 kts | 298° |
| 2026-05-06 13:05 | 39.02745 | -84.65000 | 883 ft | 4 kts | 345° |
| 2026-05-06 13:05 | 39.02719 | -84.64996 | 883 ft | 4 kts | 1° |
| 2026-05-06 13:06 | 39.02706 | -84.64996 | 883 ft | 1 kts | 0° |
| 2026-05-06 13:06 | 39.02705 | -84.64996 | 883 ft | 0 kts | 0° |
| 2026-05-06 13:08 | 39.02732 | -84.64996 | 883 ft | 8 kts | 0° |
| 2026-05-06 13:08 | 39.02823 | -84.64995 | 883 ft | 18 kts | 0° |
| 2026-05-06 13:08 | 39.02963 | -84.64994 | 883 ft | 21 kts | 0° |
| 2026-05-06 13:09 | 39.03107 | -84.64994 | 883 ft | 21 kts | 360° |
| 2026-05-06 13:09 | 39.03251 | -84.64995 | 883 ft | 21 kts | 0° |
| 2026-05-06 13:09 | 39.03394 | -84.64995 | 883 ft | 21 kts | 0° |
| 2026-05-06 13:09 | 39.03538 | -84.64994 | 883 ft | 21 kts | 0° |
| 2026-05-06 13:10 | 39.03682 | -84.64993 | 883 ft | 21 kts | 0° |
| 2026-05-06 13:10 | 39.03826 | -84.64992 | 883 ft | 21 kts | 0° |
| 2026-05-06 13:10 | 39.03970 | -84.64991 | 883 ft | 21 kts | 0° |
| 2026-05-06 13:10 | 39.04114 | -84.64992 | 883 ft | 21 kts | 0° |
| 2026-05-06 13:11 | 39.04257 | -84.64991 | 883 ft | 21 kts | 0° |
| 2026-05-06 13:11 | 39.04392 | -84.64990 | 883 ft | 13 kts | 0° |
| 2026-05-06 13:11 | 39.04459 | -84.65049 | 883 ft | 13 kts | 282° |
| 2026-05-06 13:11 | 39.04460 | -84.65165 | 883 ft | 13 kts | 272° |
| 2026-05-06 13:12 | 39.04474 | -84.65280 | 884 ft | 13 kts | 311° |
| 2026-05-06 13:12 | 39.04553 | -84.65301 | 886 ft | 12 kts | 360° |
| 2026-05-06 13:12 | 39.04623 | -84.65324 | 887 ft | 9 kts | 303° |
| 2026-05-06 13:12 | 39.04626 | -84.65368 | 888 ft | 4 kts | 268° |
| 2026-05-06 13:13 | 39.04626 | -84.65563 | 886 ft | 49 kts | 270° |
| 2026-05-06 13:13 | 39.04627 | -84.66295 | 887 ft | 112 kts | 270° |
| 2026-05-06 13:13 | 39.04632 | -84.67530 | 886 ft | 163 kts | 270° |
| 2026-05-06 13:13 | 39.04635 | -84.69128 | 1038 ft | 184 kts | 274° |
| 2026-05-06 13:14 | 39.04640 | -84.70763 | 1527 ft | 183 kts | 273° |
| 2026-05-06 13:14 | 39.04633 | -84.72407 | 2045 ft | 185 kts | 273° |
| 2026-05-06 13:14 | 39.04629 | -84.74090 | 2432 ft | 191 kts | 274° |
| 2026-05-06 13:14 | 39.04628 | -84.75874 | 2650 ft | 209 kts | 274° |
| 2026-05-06 13:15 | 39.04627 | -84.77829 | 2863 ft | 229 kts | 273° |
| 2026-05-06 13:15 | 39.04622 | -84.79968 | 3136 ft | 248 kts | 272° |
| 2026-05-06 13:15 | 39.04614 | -84.82233 | 3613 ft | 257 kts | 272° |
| 2026-05-06 13:15 | 39.04605 | -84.84540 | 4321 ft | 259 kts | 272° |
| 2026-05-06 13:16 | 39.04637 | -84.86835 | 5054 ft | 255 kts | 280° |
| 2026-05-06 13:16 | 39.05327 | -84.88929 | 5611 ft | 259 kts | 309° |
| 2026-05-06 13:16 | 39.06708 | -84.90412 | 6335 ft | 262 kts | 328° |
| 2026-05-06 13:16 | 39.08455 | -84.91122 | 6888 ft | 271 kts | 354° |
| 2026-05-06 13:17 | 39.10373 | -84.91033 | 7305 ft | 281 kts | 359° |
| 2026-05-06 13:17 | 39.12332 | -84.90869 | 7898 ft | 284 kts | 359° |
| 2026-05-06 13:17 | 39.14312 | -84.90703 | 8530 ft | 286 kts | 359° |
| 2026-05-06 13:17 | 39.16320 | -84.90545 | 9094 ft | 292 kts | 358° |
| 2026-05-06 13:18 | 39.18356 | -84.90394 | 9699 ft | 295 kts | 358° |
| 2026-05-06 13:18 | 39.20416 | -84.90245 | 10257 ft | 300 kts | 357° |
| 2026-05-06 13:18 | 39.22560 | -84.90103 | 10478 ft | 319 kts | 356° |
| 2026-05-06 13:18 | 39.24849 | -84.89956 | 10649 ft | 340 kts | 357° |
| 2026-05-06 13:19 | 39.27283 | -84.89799 | 10824 ft | 360 kts | 358° |
| 2026-05-06 13:19 | 39.29809 | -84.89152 | 10955 ft | 387 kts | 19° |
| 2026-05-06 13:19 | 39.32105 | -84.87187 | 11380 ft | 404 kts | 37° |
| 2026-05-06 13:19 | 39.34250 | -84.84761 | 11922 ft | 414 kts | 37° |
| 2026-05-06 13:20 | 39.36423 | -84.82286 | 12688 ft | 418 kts | 37° |
| 2026-05-06 13:20 | 39.38621 | -84.79793 | 13483 ft | 422 kts | 36° |
| 2026-05-06 13:20 | 39.40851 | -84.77284 | 14154 ft | 428 kts | 35° |
| 2026-05-06 13:20 | 39.43122 | -84.74748 | 14719 ft | 435 kts | 35° |
| 2026-05-06 13:21 | 39.45436 | -84.72171 | 15337 ft | 441 kts | 34° |
| 2026-05-06 13:21 | 39.47780 | -84.69565 | 15936 ft | 448 kts | 34° |
| 2026-05-06 13:21 | 39.50155 | -84.66920 | 16537 ft | 453 kts | 34° |
| 2026-05-06 13:21 | 39.52560 | -84.64241 | 17137 ft | 459 kts | 34° |
| 2026-05-06 13:22 | 39.54998 | -84.61523 | 17730 ft | 465 kts | 34° |
| 2026-05-06 13:22 | 39.57524 | -84.59039 | 18185 ft | 459 kts | 21° |
| 2026-05-06 13:22 | 39.60419 | -84.57513 | 18597 ft | 446 kts | 8° |
| 2026-05-06 13:22 | 39.63405 | -84.56325 | 19024 ft | 452 kts | 8° |
| 2026-05-06 13:23 | 39.66425 | -84.55110 | 19574 ft | 456 kts | 8° |
| 2026-05-06 13:23 | 39.69463 | -84.53848 | 20105 ft | 461 kts | 9° |
| 2026-05-06 13:23 | 39.72528 | -84.52539 | 20612 ft | 466 kts | 9° |
| 2026-05-06 13:23 | 39.75622 | -84.51191 | 21088 ft | 472 kts | 9° |
| 2026-05-06 13:24 | 39.78752 | -84.49813 | 21567 ft | 477 kts | 9° |
| 2026-05-06 13:24 | 39.81911 | -84.48416 | 22052 ft | 482 kts | 9° |
| 2026-05-06 13:24 | 39.85102 | -84.47005 | 22545 ft | 487 kts | 9° |
| 2026-05-06 13:24 | 39.88319 | -84.45582 | 23028 ft | 491 kts | 9° |
| 2026-05-06 13:25 | 39.91568 | -84.44145 | 23514 ft | 495 kts | 9° |
| 2026-05-06 13:25 | 39.94845 | -84.42696 | 23919 ft | 499 kts | 9° |
| 2026-05-06 13:25 | 39.98141 | -84.41236 | 24381 ft | 500 kts | 9° |
| 2026-05-06 13:25 | 40.01355 | -84.39326 | 24722 ft | 521 kts | 24° |
| 2026-05-06 13:26 | 40.04181 | -84.36209 | 25081 ft | 543 kts | 43° |
| 2026-05-06 13:26 | 40.06566 | -84.32369 | 25433 ft | 549 kts | 46° |
| 2026-05-06 13:26 | 40.08915 | -84.28402 | 25762 ft | 554 kts | 47° |
| 2026-05-06 13:26 | 40.11271 | -84.24396 | 26141 ft | 558 kts | 47° |
| 2026-05-06 13:27 | 40.13656 | -84.20380 | 26541 ft | 561 kts | 46° |
| 2026-05-06 13:27 | 40.16075 | -84.16367 | 26926 ft | 563 kts | 45° |
| 2026-05-06 13:27 | 40.18526 | -84.12353 | 27311 ft | 567 kts | 45° |
| 2026-05-06 13:27 | 40.21006 | -84.08326 | 27668 ft | 570 kts | 45° |
| 2026-05-06 13:28 | 40.23511 | -84.04273 | 28006 ft | 574 kts | 44° |
| 2026-05-06 13:28 | 40.26029 | -84.00198 | 28365 ft | 578 kts | 44° |
| 2026-05-06 13:28 | 40.28561 | -83.96091 | 28716 ft | 581 kts | 44° |
| 2026-05-06 13:28 | 40.31102 | -83.91957 | 29047 ft | 585 kts | 44° |
| 2026-05-06 13:29 | 40.33655 | -83.87792 | 29432 ft | 586 kts | 44° |
| 2026-05-06 13:29 | 40.36204 | -83.83622 | 29909 ft | 586 kts | 44° |
| 2026-05-06 13:29 | 40.38749 | -83.79447 | 30334 ft | 586 kts | 44° |
| 2026-05-06 13:29 | 40.41291 | -83.75274 | 30717 ft | 586 kts | 44° |
| 2026-05-06 13:30 | 40.43835 | -83.71096 | 31068 ft | 586 kts | 44° |
| 2026-05-06 13:30 | 40.46345 | -83.66969 | 31404 ft | 587 kts | 44° |
| 2026-05-06 13:30 | 40.48893 | -83.62776 | 31743 ft | 587 kts | 44° |
| 2026-05-06 13:30 | 40.51436 | -83.58587 | 32059 ft | 587 kts | 44° |
| 2026-05-06 13:31 | 40.53982 | -83.54384 | 32392 ft | 587 kts | 44° |
| 2026-05-06 13:31 | 40.56525 | -83.50183 | 32717 ft | 587 kts | 44° |
| 2026-05-06 13:31 | 40.59071 | -83.45971 | 32903 ft | 591 kts | 44° |
| 2026-05-06 13:32 | 40.64193 | -83.37483 | 32938 ft | 591 kts | 44° |
| 2026-05-06 13:32 | 40.69272 | -83.29024 | 32929 ft | 586 kts | 44° |
| 2026-05-06 13:33 | 40.74316 | -83.20610 | 32942 ft | 585 kts | 44° |
| 2026-05-06 13:33 | 40.79354 | -83.12192 | 32941 ft | 584 kts | 44° |
| 2026-05-06 13:34 | 40.84387 | -83.03758 | 32938 ft | 585 kts | 45° |
| 2026-05-06 13:34 | 40.89417 | -82.95305 | 32923 ft | 586 kts | 45° |
| 2026-05-06 13:35 | 40.94448 | -82.86824 | 32915 ft | 586 kts | 45° |
| 2026-05-06 13:35 | 40.99480 | -82.78317 | 32920 ft | 587 kts | 45° |
| 2026-05-06 13:36 | 41.04508 | -82.69793 | 32923 ft | 587 kts | 45° |
| 2026-05-06 13:36 | 41.09534 | -82.61248 | 32920 ft | 588 kts | 45° |
| 2026-05-06 13:37 | 41.14551 | -82.52696 | 32927 ft | 588 kts | 45° |
| 2026-05-06 13:37 | 41.19561 | -82.44132 | 32926 ft | 587 kts | 46° |
| 2026-05-06 13:38 | 41.24556 | -82.35566 | 32922 ft | 586 kts | 46° |
| 2026-05-06 13:38 | 41.29540 | -82.26999 | 32928 ft | 585 kts | 46° |
| 2026-05-06 13:39 | 41.34855 | -82.18987 | 32925 ft | 569 kts | 32° |
| 2026-05-06 13:39 | 41.41137 | -82.12898 | 32942 ft | 550 kts | 19° |
| 2026-05-06 13:39 | 41.44513 | -82.10637 | 32937 ft | 538 kts | 13° |
| 2026-05-06 13:40 | 41.47882 | -82.08634 | 32944 ft | 537 kts | 13° |
| 2026-05-06 13:40 | 41.54733 | -82.04609 | 32915 ft | 539 kts | 13° |
| 2026-05-06 13:41 | 41.61583 | -82.00498 | 32924 ft | 541 kts | 14° |
| 2026-05-06 13:41 | 41.68431 | -81.96311 | 32928 ft | 542 kts | 14° |
| 2026-05-06 13:42 | 41.75278 | -81.92095 | 32928 ft | 542 kts | 14° |
| 2026-05-06 13:42 | 41.82124 | -81.87876 | 32924 ft | 541 kts | 14° |
| 2026-05-06 13:43 | 41.88966 | -81.83655 | 32932 ft | 541 kts | 15° |
| 2026-05-06 13:43 | 41.95799 | -81.79432 | 32939 ft | 540 kts | 15° |
| 2026-05-06 13:44 | 42.02623 | -81.75205 | 32936 ft | 539 kts | 15° |
| 2026-05-06 13:44 | 42.09429 | -81.70978 | 32927 ft | 539 kts | 15° |
| 2026-05-06 13:45 | 42.15081 | -81.67460 | 32924 ft | 538 kts | 15° |
| 2026-05-06 13:45 | 42.25257 | -81.61108 | 32921 ft | 538 kts | 16° |
| 2026-05-06 13:46 | 42.32041 | -81.56862 | 32907 ft | 537 kts | 16° |
| 2026-05-06 13:46 | 42.38818 | -81.52609 | 32908 ft | 537 kts | 16° |
| 2026-05-06 13:47 | 42.45586 | -81.48351 | 32912 ft | 536 kts | 17° |
| 2026-05-06 13:47 | 42.52346 | -81.44089 | 32910 ft | 536 kts | 17° |
| 2026-05-06 13:48 | 42.59101 | -81.39820 | 32906 ft | 535 kts | 17° |
| 2026-05-06 13:48 | 42.65846 | -81.35547 | 32906 ft | 535 kts | 17° |
| 2026-05-06 13:49 | 42.72590 | -81.31262 | 32898 ft | 535 kts | 17° |
| 2026-05-06 13:49 | 42.79331 | -81.26971 | 32896 ft | 535 kts | 18° |
| 2026-05-06 13:50 | 42.86075 | -81.22667 | 32897 ft | 535 kts | 18° |
| 2026-05-06 13:50 | 42.92822 | -81.18350 | 32891 ft | 536 kts | 18° |
| 2026-05-06 13:51 | 42.99578 | -81.14018 | 32883 ft | 536 kts | 18° |
| 2026-05-06 13:51 | 43.02433 | -81.12023 | 32865 ft | 541 kts | 26° |
| 2026-05-06 13:52 | 43.05461 | -81.08886 | 32875 ft | 551 kts | 39° |
| 2026-05-06 13:52 | 43.08037 | -81.04972 | 32881 ft | 558 kts | 51° |
| 2026-05-06 13:52 | 43.10041 | -81.00424 | 32874 ft | 559 kts | 64° |
| 2026-05-06 13:52 | 43.11667 | -80.95593 | 32905 ft | 560 kts | 65° |
| 2026-05-06 13:53 | 43.14859 | -80.85849 | 32896 ft | 562 kts | 65° |
| 2026-05-06 13:53 | 43.18126 | -80.76100 | 32896 ft | 564 kts | 64° |
| 2026-05-06 13:54 | 43.21435 | -80.66434 | 32888 ft | 565 kts | 64° |
| 2026-05-06 13:54 | 43.24773 | -80.56709 | 32883 ft | 565 kts | 64° |
| 2026-05-06 13:55 | 43.28106 | -80.46942 | 32879 ft | 564 kts | 64° |
| 2026-05-06 13:55 | 43.31413 | -80.37192 | 32874 ft | 563 kts | 65° |
| 2026-05-06 13:56 | 43.34706 | -80.27447 | 32869 ft | 562 kts | 65° |
| 2026-05-06 13:56 | 43.37986 | -80.17707 | 32874 ft | 561 kts | 65° |
| 2026-05-06 13:57 | 43.41252 | -80.07976 | 32875 ft | 560 kts | 65° |
| 2026-05-06 13:57 | 43.44500 | -79.98264 | 32881 ft | 560 kts | 65° |
| 2026-05-06 13:58 | 43.47749 | -79.88511 | 32900 ft | 560 kts | 65° |
| 2026-05-06 13:58 | 43.50995 | -79.78733 | 32894 ft | 561 kts | 65° |
| 2026-05-06 13:59 | 43.54227 | -79.68964 | 32886 ft | 561 kts | 66° |
| 2026-05-06 13:59 | 43.57459 | -79.59156 | 32889 ft | 561 kts | 66° |
| 2026-05-06 14:00 | 43.60673 | -79.49365 | 32892 ft | 561 kts | 66° |
| 2026-05-06 14:00 | 43.63889 | -79.39536 | 32882 ft | 562 kts | 66° |
| 2026-05-06 14:01 | 43.66962 | -79.29615 | 32889 ft | 562 kts | 70° |
| 2026-05-06 14:01 | 43.69753 | -79.19519 | 32901 ft | 563 kts | 71° |
| 2026-05-06 14:02 | 43.72503 | -79.09358 | 32906 ft | 565 kts | 71° |
| 2026-05-06 14:02 | 43.75261 | -78.99248 | 32912 ft | 566 kts | 71° |
| 2026-05-06 14:03 | 43.78075 | -78.88988 | 32909 ft | 567 kts | 71° |
| 2026-05-06 14:03 | 43.80850 | -78.78848 | 32905 ft | 567 kts | 71° |
| 2026-05-06 14:04 | 43.83626 | -78.68647 | 32905 ft | 566 kts | 71° |
| 2026-05-06 14:04 | 43.86386 | -78.58453 | 32905 ft | 564 kts | 71° |
| 2026-05-06 14:05 | 43.89129 | -78.48276 | 32913 ft | 563 kts | 72° |
| 2026-05-06 14:05 | 43.91877 | -78.38042 | 32900 ft | 562 kts | 72° |
| 2026-05-06 14:06 | 43.94572 | -78.27961 | 32896 ft | 561 kts | 72° |
| 2026-05-06 14:06 | 43.97276 | -78.17805 | 32896 ft | 561 kts | 72° |
| 2026-05-06 14:07 | 43.99972 | -78.07636 | 32905 ft | 561 kts | 72° |
| 2026-05-06 14:07 | 44.02660 | -77.97452 | 32900 ft | 562 kts | 72° |
| 2026-05-06 14:08 | 44.05340 | -77.87251 | 32900 ft | 562 kts | 73° |
| 2026-05-06 14:08 | 44.08014 | -77.77035 | 32904 ft | 562 kts | 73° |
| 2026-05-06 14:09 | 44.10680 | -77.66806 | 32906 ft | 562 kts | 73° |
| 2026-05-06 14:09 | 44.13334 | -77.56579 | 32906 ft | 561 kts | 74° |
| 2026-05-06 14:10 | 44.15973 | -77.46364 | 32901 ft | 560 kts | 74° |
| 2026-05-06 14:10 | 44.18598 | -77.36160 | 32905 ft | 559 kts | 74° |
| 2026-05-06 14:11 | 44.21206 | -77.25974 | 32905 ft | 557 kts | 75° |
| 2026-05-06 14:11 | 44.23802 | -77.15795 | 32902 ft | 556 kts | 75° |
| 2026-05-06 14:12 | 44.26382 | -77.05631 | 32898 ft | 556 kts | 75° |
| 2026-05-06 14:12 | 44.28952 | -76.95460 | 32903 ft | 556 kts | 75° |
| 2026-05-06 14:13 | 44.31514 | -76.85278 | 32898 ft | 556 kts | 75° |
| 2026-05-06 14:13 | 44.34070 | -76.75076 | 32901 ft | 557 kts | 75° |
| 2026-05-06 14:14 | 44.36604 | -76.64916 | 32898 ft | 558 kts | 75° |
| 2026-05-06 14:14 | 44.39153 | -76.54652 | 32903 ft | 559 kts | 75° |
| 2026-05-06 14:15 | 44.41697 | -76.44358 | 32903 ft | 561 kts | 75° |
| 2026-05-06 14:15 | 44.44238 | -76.34037 | 32908 ft | 561 kts | 76° |
| 2026-05-06 14:16 | 44.46773 | -76.23693 | 32906 ft | 562 kts | 76° |
| 2026-05-06 14:16 | 44.49644 | -76.13473 | 32915 ft | 566 kts | 70° |
| 2026-05-06 14:17 | 44.52874 | -76.03409 | 32910 ft | 567 kts | 69° |
| 2026-05-06 14:17 | 44.56085 | -75.93335 | 32904 ft | 567 kts | 70° |
| 2026-05-06 14:18 | 44.59248 | -75.83208 | 32900 ft | 567 kts | 70° |
| 2026-05-06 14:18 | 44.62396 | -75.73060 | 32893 ft | 567 kts | 70° |
| 2026-05-06 14:19 | 44.65529 | -75.62903 | 32892 ft | 566 kts | 71° |
| 2026-05-06 14:19 | 44.68318 | -75.52577 | 32891 ft | 565 kts | 74° |
| 2026-05-06 14:20 | 44.71098 | -75.42249 | 32885 ft | 566 kts | 73° |
| 2026-05-06 14:20 | 44.73949 | -75.32009 | 32891 ft | 567 kts | 71° |
| 2026-05-06 14:21 | 44.77006 | -75.21694 | 32895 ft | 568 kts | 70° |
| 2026-05-06 14:21 | 44.80054 | -75.11441 | 32899 ft | 568 kts | 71° |
| 2026-05-06 14:22 | 44.83042 | -75.01220 | 32904 ft | 568 kts | 71° |
| 2026-05-06 14:22 | 44.86031 | -74.90906 | 32913 ft | 569 kts | 71° |
| 2026-05-06 14:23 | 44.89016 | -74.80580 | 32924 ft | 569 kts | 71° |
| 2026-05-06 14:23 | 44.92089 | -74.70287 | 32916 ft | 571 kts | 66° |
| 2026-05-06 14:24 | 44.95792 | -74.60372 | 32923 ft | 571 kts | 63° |
| 2026-05-06 14:24 | 44.99598 | -74.50518 | 32922 ft | 571 kts | 63° |
| 2026-05-06 14:25 | 45.03367 | -74.40637 | 32924 ft | 571 kts | 63° |
| 2026-05-06 14:25 | 45.07095 | -74.30711 | 32896 ft | 571 kts | 64° |
| 2026-05-06 14:26 | 45.10800 | -74.20772 | 32900 ft | 571 kts | 64° |
| 2026-05-06 14:26 | 45.14499 | -74.10817 | 32916 ft | 571 kts | 64° |
| 2026-05-06 14:27 | 45.18192 | -74.00854 | 32898 ft | 571 kts | 63° |
| 2026-05-06 14:27 | 45.21877 | -73.90883 | 32910 ft | 571 kts | 63° |
| 2026-05-06 14:28 | 45.25550 | -73.80907 | 32920 ft | 570 kts | 63° |
| 2026-05-06 14:28 | 45.29216 | -73.70911 | 32906 ft | 571 kts | 63° |
| 2026-05-06 14:29 | 45.32871 | -73.60910 | 32910 ft | 571 kts | 63° |
| 2026-05-06 14:29 | 45.36518 | -73.50891 | 32912 ft | 570 kts | 63° |
| 2026-05-06 14:30 | 45.40155 | -73.40863 | 32897 ft | 571 kts | 63° |
| 2026-05-06 14:30 | 45.43785 | -73.30819 | 32913 ft | 570 kts | 63° |
| 2026-05-06 14:31 | 45.47405 | -73.20765 | 32913 ft | 571 kts | 63° |
| 2026-05-06 14:31 | 45.51019 | -73.10691 | 32913 ft | 571 kts | 64° |
| 2026-05-06 14:32 | 45.54015 | -73.02310 | 32915 ft | 571 kts | 64° |
| 2026-05-06 14:32 | 45.57610 | -72.92218 | 32904 ft | 571 kts | 64° |
| 2026-05-06 14:33 | 45.61200 | -72.82102 | 32914 ft | 571 kts | 64° |
| 2026-05-06 14:33 | 45.64782 | -72.71971 | 32918 ft | 571 kts | 64° |
| 2026-05-06 14:34 | 45.68357 | -72.61823 | 32905 ft | 572 kts | 64° |
| 2026-05-06 14:34 | 45.71924 | -72.51657 | 32912 ft | 572 kts | 64° |
| 2026-05-06 14:35 | 45.75482 | -72.41479 | 32910 ft | 571 kts | 64° |
| 2026-05-06 14:35 | 45.79029 | -72.31295 | 32908 ft | 571 kts | 64° |
| 2026-05-06 14:36 | 45.82568 | -72.21092 | 32903 ft | 571 kts | 64° |
| 2026-05-06 14:36 | 45.86071 | -72.10956 | 32910 ft | 571 kts | 64° |
| 2026-05-06 14:37 | 45.89587 | -72.00742 | 32906 ft | 571 kts | 64° |
| 2026-05-06 14:37 | 45.93095 | -71.90515 | 32903 ft | 570 kts | 64° |
| 2026-05-06 14:38 | 45.96589 | -71.80285 | 32905 ft | 570 kts | 64° |
| 2026-05-06 14:38 | 46.00073 | -71.70048 | 32909 ft | 570 kts | 64° |
| 2026-05-06 14:39 | 46.03547 | -71.59801 | 32912 ft | 569 kts | 64° |
| 2026-05-06 14:39 | 46.07004 | -71.49564 | 32907 ft | 568 kts | 64° |
| 2026-05-06 14:40 | 46.10449 | -71.39319 | 32909 ft | 568 kts | 64° |
| 2026-05-06 14:40 | 46.13883 | -71.29070 | 32901 ft | 568 kts | 64° |
| 2026-05-06 14:41 | 46.17309 | -71.18805 | 32905 ft | 568 kts | 64° |
| 2026-05-06 14:41 | 46.20723 | -71.08532 | 32896 ft | 568 kts | 65° |
| 2026-05-06 14:42 | 46.24128 | -70.98250 | 32895 ft | 567 kts | 65° |
| 2026-05-06 14:42 | 46.27523 | -70.87954 | 32890 ft | 567 kts | 65° |
| 2026-05-06 14:43 | 46.30915 | -70.77634 | 32853 ft | 570 kts | 65° |
| 2026-05-06 14:43 | 46.34305 | -70.67265 | 32857 ft | 571 kts | 65° |
| 2026-05-06 14:44 | 46.37693 | -70.56865 | 32908 ft | 572 kts | 65° |
| 2026-05-06 14:45 | 46.42762 | -70.41238 | 32850 ft | 566 kts | 65° |
| 2026-05-06 14:45 | 46.46063 | -70.31005 | 32895 ft | 564 kts | 65° |
| 2026-05-06 14:46 | 46.49377 | -70.20690 | 32890 ft | 564 kts | 65° |
| 2026-05-06 14:46 | 46.52687 | -70.10348 | 32900 ft | 565 kts | 65° |
| 2026-05-06 14:47 | 46.55991 | -69.99982 | 32899 ft | 566 kts | 65° |
| 2026-05-06 14:47 | 46.59287 | -69.89599 | 32913 ft | 566 kts | 65° |
| 2026-05-06 14:48 | 46.62589 | -69.79154 | 32902 ft | 570 kts | 65° |
| 2026-05-06 14:48 | 46.65886 | -69.68684 | 32877 ft | 566 kts | 65° |
| 2026-05-06 14:49 | 46.69140 | -69.58305 | 32867 ft | 562 kts | 65° |
| 2026-05-06 14:49 | 46.72361 | -69.47992 | 32923 ft | 558 kts | 65° |
| 2026-05-06 14:50 | 46.75573 | -69.37667 | 32906 ft | 560 kts | 66° |
| 2026-05-06 14:50 | 46.78784 | -69.27301 | 32909 ft | 561 kts | 66° |
| 2026-05-06 14:51 | 46.81992 | -69.16898 | 32918 ft | 563 kts | 66° |
| 2026-05-06 14:51 | 46.85199 | -69.06456 | 32929 ft | 564 kts | 66° |
| 2026-05-06 14:52 | 46.88403 | -68.95984 | 32933 ft | 565 kts | 66° |
| 2026-05-06 14:52 | 46.91600 | -68.85493 | 32938 ft | 565 kts | 66° |
| 2026-05-06 14:53 | 46.94786 | -68.74989 | 32936 ft | 565 kts | 66° |
| 2026-05-06 14:53 | 46.97939 | -68.64555 | 32937 ft | 563 kts | 66° |
| 2026-05-06 14:54 | 47.01094 | -68.54069 | 32928 ft | 562 kts | 66° |
| 2026-05-06 14:54 | 47.04233 | -68.43587 | 32908 ft | 561 kts | 66° |
| 2026-05-06 14:55 | 47.07353 | -68.33129 | 32913 ft | 559 kts | 66° |
| 2026-05-06 14:55 | 47.10457 | -68.22681 | 32903 ft | 558 kts | 66° |
| 2026-05-06 14:56 | 47.13545 | -68.12240 | 32895 ft | 557 kts | 66° |
| 2026-05-06 14:56 | 47.16617 | -68.01811 | 32889 ft | 556 kts | 66° |
| 2026-05-06 14:57 | 47.19676 | -67.91380 | 32903 ft | 555 kts | 66° |
| 2026-05-06 14:57 | 47.22722 | -67.80949 | 32888 ft | 555 kts | 67° |
| 2026-05-06 14:58 | 47.25757 | -67.70513 | 32879 ft | 554 kts | 67° |
| 2026-05-06 14:58 | 47.28778 | -67.60080 | 32885 ft | 553 kts | 67° |
| 2026-05-06 14:59 | 47.31787 | -67.49644 | 32882 ft | 553 kts | 67° |
| 2026-05-06 14:59 | 47.34787 | -67.39195 | 32879 ft | 553 kts | 67° |
| 2026-05-06 15:00 | 47.37826 | -67.28774 | 32880 ft | 553 kts | 64° |
| 2026-05-06 15:00 | 47.41325 | -67.18742 | 32884 ft | 554 kts | 61° |
| 2026-05-06 15:01 | 47.44953 | -67.08666 | 32881 ft | 557 kts | 61° |
| 2026-05-06 15:01 | 47.48556 | -66.98557 | 32891 ft | 555 kts | 62° |
| 2026-05-06 15:02 | 47.52111 | -66.88436 | 32889 ft | 554 kts | 62° |
| 2026-05-06 15:02 | 47.55644 | -66.78302 | 32882 ft | 554 kts | 62° |
| 2026-05-06 15:03 | 47.59165 | -66.68163 | 32884 ft | 553 kts | 62° |
| 2026-05-06 15:03 | 47.62679 | -66.58016 | 32882 ft | 554 kts | 62° |
| 2026-05-06 15:04 | 47.66189 | -66.47847 | 32885 ft | 555 kts | 62° |
| 2026-05-06 15:04 | 47.69696 | -66.37644 | 32879 ft | 555 kts | 62° |
| 2026-05-06 15:05 | 47.73198 | -66.27416 | 32880 ft | 556 kts | 62° |
| 2026-05-06 15:05 | 47.76690 | -66.17173 | 32894 ft | 556 kts | 63° |
| 2026-05-06 15:06 | 47.80175 | -66.06918 | 32905 ft | 556 kts | 63° |
| 2026-05-06 15:06 | 47.83652 | -65.96640 | 32909 ft | 556 kts | 63° |
| 2026-05-06 15:07 | 47.87120 | -65.86351 | 32912 ft | 556 kts | 63° |
| 2026-05-06 15:07 | 47.90576 | -65.76053 | 32910 ft | 555 kts | 63° |
| 2026-05-06 15:08 | 47.94019 | -65.65756 | 32900 ft | 555 kts | 63° |
| 2026-05-06 15:08 | 47.97450 | -65.55450 | 32891 ft | 554 kts | 63° |
| 2026-05-06 15:09 | 48.00870 | -65.45138 | 32885 ft | 554 kts | 63° |
| 2026-05-06 15:09 | 48.04272 | -65.34838 | 32889 ft | 553 kts | 63° |
| 2026-05-06 15:10 | 48.07664 | -65.24527 | 32887 ft | 552 kts | 63° |
| 2026-05-06 15:10 | 48.11042 | -65.14216 | 32888 ft | 551 kts | 63° |
| 2026-05-06 15:11 | 48.14406 | -65.03910 | 32900 ft | 551 kts | 63° |
| 2026-05-06 15:11 | 48.17755 | -64.93603 | 32897 ft | 550 kts | 63° |
| 2026-05-06 15:12 | 48.21091 | -64.83297 | 32913 ft | 550 kts | 63° |
| 2026-05-06 15:12 | 48.24420 | -64.72974 | 32894 ft | 549 kts | 63° |
| 2026-05-06 15:13 | 48.27733 | -64.62654 | 32905 ft | 549 kts | 63° |
| 2026-05-06 15:13 | 48.31036 | -64.52323 | 32908 ft | 549 kts | 63° |
| 2026-05-06 15:14 | 48.34330 | -64.41980 | 32909 ft | 549 kts | 63° |
| 2026-05-06 15:14 | 48.37616 | -64.31619 | 32901 ft | 549 kts | 63° |
| 2026-05-06 15:15 | 48.40895 | -64.21237 | 32908 ft | 549 kts | 63° |
| 2026-05-06 15:15 | 48.44164 | -64.10842 | 32906 ft | 549 kts | 63° |
| 2026-05-06 15:16 | 48.47404 | -64.00500 | 32907 ft | 550 kts | 64° |
| 2026-05-06 15:16 | 48.50656 | -63.90073 | 32910 ft | 550 kts | 64° |
| 2026-05-06 15:17 | 48.53898 | -63.79635 | 32913 ft | 549 kts | 64° |
| 2026-05-06 15:17 | 48.57130 | -63.69186 | 32910 ft | 549 kts | 64° |
| 2026-05-06 15:18 | 48.60350 | -63.58734 | 32916 ft | 549 kts | 64° |
| 2026-05-06 15:18 | 48.63559 | -63.48271 | 32918 ft | 548 kts | 64° |
| 2026-05-06 15:19 | 48.66756 | -63.37805 | 32919 ft | 548 kts | 64° |
| 2026-05-06 15:19 | 48.69939 | -63.27339 | 32920 ft | 547 kts | 64° |
| 2026-05-06 15:20 | 48.73111 | -63.16865 | 32918 ft | 547 kts | 64° |
| 2026-05-06 15:20 | 48.75759 | -63.08086 | 32919 ft | 547 kts | 64° |
| 2026-05-06 15:21 | 48.78910 | -62.97599 | 32921 ft | 546 kts | 64° |
| 2026-05-06 15:21 | 48.82048 | -62.87113 | 32919 ft | 546 kts | 64° |
| 2026-05-06 15:22 | 48.85151 | -62.76696 | 32923 ft | 545 kts | 65° |
| 2026-05-06 15:22 | 48.88264 | -62.66202 | 32923 ft | 544 kts | 65° |
| 2026-05-06 15:23 | 48.91362 | -62.55714 | 32927 ft | 544 kts | 65° |
| 2026-05-06 15:23 | 48.94448 | -62.45223 | 32932 ft | 543 kts | 65° |
| 2026-05-06 15:24 | 48.97519 | -62.34736 | 32934 ft | 543 kts | 65° |
| 2026-05-06 15:24 | 49.00579 | -62.24239 | 32931 ft | 542 kts | 65° |
| 2026-05-06 15:25 | 49.03628 | -62.13738 | 32930 ft | 542 kts | 65° |
| 2026-05-06 15:25 | 49.06667 | -62.03225 | 32933 ft | 542 kts | 66° |
| 2026-05-06 15:26 | 49.09695 | -61.92702 | 32931 ft | 542 kts | 66° |
| 2026-05-06 15:26 | 49.12713 | -61.82167 | 32935 ft | 542 kts | 66° |
| 2026-05-06 15:27 | 49.15725 | -61.71609 | 32930 ft | 542 kts | 66° |
| 2026-05-06 15:27 | 49.18725 | -61.61047 | 32934 ft | 542 kts | 66° |
| 2026-05-06 15:28 | 49.21717 | -61.50466 | 32934 ft | 542 kts | 66° |
| 2026-05-06 15:28 | 49.24699 | -61.39873 | 32938 ft | 542 kts | 66° |
| 2026-05-06 15:29 | 49.27669 | -61.29273 | 32937 ft | 542 kts | 66° |
| 2026-05-06 15:29 | 49.30627 | -61.18671 | 32943 ft | 541 kts | 66° |
| 2026-05-06 15:30 | 49.33574 | -61.08061 | 32941 ft | 541 kts | 66° |
| 2026-05-06 15:30 | 49.36507 | -60.97453 | 32940 ft | 540 kts | 67° |
| 2026-05-06 15:31 | 49.39426 | -60.86847 | 32949 ft | 539 kts | 67° |
| 2026-05-06 15:31 | 49.42334 | -60.76236 | 32941 ft | 539 kts | 67° |
| 2026-05-06 15:32 | 49.46666 | -60.60334 | 32951 ft | 537 kts | 68° |
| 2026-05-06 15:32 | 49.49538 | -60.49735 | 32951 ft | 537 kts | 68° |
| 2026-05-06 15:33 | 49.52380 | -60.39200 | 32949 ft | 537 kts | 68° |
| 2026-05-06 15:33 | 49.55228 | -60.28590 | 32954 ft | 536 kts | 68° |
| 2026-05-06 15:34 | 49.58064 | -60.17978 | 32953 ft | 535 kts | 68° |
| 2026-05-06 15:34 | 49.60887 | -60.07366 | 32958 ft | 535 kts | 68° |
| 2026-05-06 15:35 | 49.63696 | -59.96758 | 32960 ft | 534 kts | 68° |
| 2026-05-06 15:35 | 49.66496 | -59.86134 | 32962 ft | 534 kts | 69° |
| 2026-05-06 15:36 | 49.69284 | -59.75509 | 32976 ft | 534 kts | 69° |
| 2026-05-06 15:36 | 49.72068 | -59.64849 | 32964 ft | 535 kts | 69° |
| 2026-05-06 15:37 | 49.74841 | -59.54180 | 32969 ft | 534 kts | 69° |
| 2026-05-06 15:37 | 49.77601 | -59.43513 | 32970 ft | 534 kts | 69° |
| 2026-05-06 15:38 | 49.80348 | -59.32845 | 32978 ft | 533 kts | 69° |
| 2026-05-06 15:38 | 49.83083 | -59.22174 | 32979 ft | 533 kts | 69° |
| 2026-05-06 15:39 | 49.85808 | -59.11494 | 32980 ft | 533 kts | 69° |
| 2026-05-06 15:39 | 49.88522 | -59.00804 | 32983 ft | 533 kts | 69° |
| 2026-05-06 15:40 | 49.91230 | -58.90084 | 32982 ft | 534 kts | 69° |
| 2026-05-06 15:40 | 49.93934 | -58.79332 | 32991 ft | 535 kts | 69° |
| 2026-05-06 15:41 | 49.96631 | -58.68558 | 32980 ft | 535 kts | 70° |
| 2026-05-06 15:41 | 49.99315 | -58.57784 | 32978 ft | 534 kts | 70° |
| 2026-05-06 15:42 | 50.01982 | -58.47024 | 32983 ft | 533 kts | 70° |
| 2026-05-06 15:42 | 50.04636 | -58.36262 | 32988 ft | 532 kts | 70° |
| 2026-05-06 15:43 | 50.07278 | -58.25501 | 32985 ft | 532 kts | 70° |
| 2026-05-06 15:43 | 50.09889 | -58.14812 | 32990 ft | 532 kts | 70° |
| 2026-05-06 15:44 | 50.12507 | -58.04043 | 32984 ft | 531 kts | 70° |
| 2026-05-06 15:44 | 50.15113 | -57.93270 | 32975 ft | 531 kts | 70° |
| 2026-05-06 15:45 | 50.17708 | -57.82490 | 32989 ft | 531 kts | 71° |
| 2026-05-06 15:45 | 50.20292 | -57.71701 | 32989 ft | 531 kts | 71° |
| 2026-05-06 15:46 | 50.22868 | -57.60894 | 32983 ft | 531 kts | 71° |
| 2026-05-06 15:46 | 50.25431 | -57.50088 | 32985 ft | 530 kts | 71° |
| 2026-05-06 15:47 | 50.27981 | -57.39278 | 32979 ft | 530 kts | 71° |
| 2026-05-06 15:47 | 50.30524 | -57.28448 | 32980 ft | 530 kts | 71° |
| 2026-05-06 15:48 | 50.33054 | -57.17618 | 32973 ft | 530 kts | 72° |
| 2026-05-06 15:48 | 50.35574 | -57.06775 | 32969 ft | 530 kts | 72° |
| 2026-05-06 15:49 | 50.38084 | -56.95923 | 32974 ft | 530 kts | 72° |
| 2026-05-06 15:49 | 50.40583 | -56.85065 | 32978 ft | 530 kts | 72° |
| 2026-05-06 15:50 | 50.43071 | -56.74195 | 32973 ft | 530 kts | 72° |
| 2026-05-06 15:50 | 50.45550 | -56.63311 | 32977 ft | 530 kts | 72° |
| 2026-05-06 15:51 | 50.48001 | -56.52492 | 32976 ft | 530 kts | 72° |
| 2026-05-06 15:51 | 50.50462 | -56.41578 | 32969 ft | 530 kts | 72° |
| 2026-05-06 15:52 | 50.52911 | -56.30655 | 32976 ft | 530 kts | 72° |
| 2026-05-06 15:52 | 50.55350 | -56.19720 | 32964 ft | 530 kts | 72° |
| 2026-05-06 15:53 | 50.57778 | -56.08781 | 32967 ft | 529 kts | 72° |
| 2026-05-06 15:53 | 50.60193 | -55.97842 | 32973 ft | 529 kts | 72° |
| 2026-05-06 15:54 | 50.62595 | -55.86900 | 32969 ft | 529 kts | 73° |
| 2026-05-06 15:54 | 50.64985 | -55.75958 | 32968 ft | 528 kts | 73° |
| 2026-05-06 15:55 | 50.67364 | -55.65008 | 32969 ft | 528 kts | 73° |
| 2026-05-06 15:55 | 50.69732 | -55.54051 | 32969 ft | 528 kts | 73° |
| 2026-05-06 15:56 | 50.72089 | -55.43086 | 32970 ft | 528 kts | 73° |
| 2026-05-06 15:56 | 50.74435 | -55.32113 | 32968 ft | 527 kts | 73° |
| 2026-05-06 15:57 | 50.76770 | -55.21136 | 32971 ft | 527 kts | 73° |
| 2026-05-06 15:57 | 50.79094 | -55.10146 | 32961 ft | 527 kts | 73° |
| 2026-05-06 15:58 | 50.81408 | -54.99145 | 32966 ft | 527 kts | 73° |
| 2026-05-06 15:58 | 50.83712 | -54.88133 | 32966 ft | 527 kts | 73° |
| 2026-05-06 15:59 | 50.86004 | -54.77115 | 32964 ft | 527 kts | 73° |
| 2026-05-06 15:59 | 50.88272 | -54.66155 | 32971 ft | 527 kts | 73° |
| 2026-05-06 16:00 | 50.90543 | -54.55121 | 32973 ft | 527 kts | 73° |
| 2026-05-06 16:00 | 50.92804 | -54.44067 | 32967 ft | 528 kts | 73° |
| 2026-05-06 16:01 | 50.95056 | -54.33002 | 32981 ft | 528 kts | 73° |
| 2026-05-06 16:01 | 50.97301 | -54.21909 | 32985 ft | 528 kts | 73° |
| 2026-05-06 16:02 | 50.99535 | -54.10807 | 32976 ft | 528 kts | 73° |
| 2026-05-06 16:02 | 51.01755 | -53.99709 | 32983 ft | 527 kts | 73° |
| 2026-05-06 16:03 | 51.03963 | -53.88609 | 32978 ft | 527 kts | 73° |
| 2026-05-06 16:03 | 51.06159 | -53.77510 | 32990 ft | 526 kts | 73° |
| 2026-05-06 16:04 | 51.08339 | -53.66423 | 32981 ft | 525 kts | 73° |
| 2026-05-06 16:04 | 51.10508 | -53.55330 | 32979 ft | 525 kts | 73° |
| 2026-05-06 16:05 | 51.12664 | -53.44240 | 32984 ft | 524 kts | 73° |
| 2026-05-06 16:05 | 51.14809 | -53.33146 | 32996 ft | 524 kts | 73° |
| 2026-05-06 16:06 | 51.17011 | -53.22069 | 32996 ft | 525 kts | 70° |
| 2026-05-06 16:06 | 51.19870 | -53.11397 | 33477 ft | 527 kts | 66° |
| 2026-05-06 16:07 | 51.21364 | -53.06080 | 33982 ft | 524 kts | 66° |
| 2026-05-06 16:07 | 51.22850 | -53.00787 | 34347 ft | 523 kts | 66° |
| 2026-05-06 16:07 | 51.24328 | -52.95482 | 34631 ft | 523 kts | 66° |
| 2026-05-06 16:07 | 51.25794 | -52.90165 | 34873 ft | 524 kts | 66° |
| 2026-05-06 16:08 | 51.28241 | -52.81193 | 34972 ft | 527 kts | 66° |
| 2026-05-06 16:08 | 51.31120 | -52.70546 | 34993 ft | 524 kts | 66° |
| 2026-05-06 16:09 | 51.34013 | -52.59793 | 34993 ft | 522 kts | 66° |
| 2026-05-06 16:09 | 51.36853 | -52.49204 | 35003 ft | 521 kts | 66° |
| 2026-05-06 16:10 | 51.39697 | -52.38554 | 34997 ft | 520 kts | 66° |
| 2026-05-06 16:10 | 51.42551 | -52.27819 | 34999 ft | 520 kts | 66° |
| 2026-05-06 16:11 | 51.45358 | -52.17209 | 34998 ft | 520 kts | 66° |
| 2026-05-06 16:11 | 51.48175 | -52.06509 | 35007 ft | 521 kts | 66° |
| 2026-05-06 16:12 | 51.50986 | -51.95784 | 35006 ft | 522 kts | 66° |
| 2026-05-06 16:12 | 51.53789 | -51.85039 | 35019 ft | 522 kts | 66° |
| 2026-05-06 16:13 | 51.56584 | -51.74271 | 35008 ft | 522 kts | 66° |
| 2026-05-06 16:13 | 51.59371 | -51.63486 | 35021 ft | 522 kts | 66° |
| 2026-05-06 16:14 | 51.62148 | -51.52686 | 35010 ft | 522 kts | 66° |
| 2026-05-06 16:14 | 51.64914 | -51.41878 | 35017 ft | 522 kts | 66° |
| 2026-05-06 16:15 | 51.67664 | -51.31078 | 35006 ft | 521 kts | 66° |
| 2026-05-06 16:15 | 51.70400 | -51.20285 | 35016 ft | 520 kts | 67° |
| 2026-05-06 16:16 | 51.73121 | -51.09494 | 35008 ft | 519 kts | 67° |
| 2026-05-06 16:16 | 51.75828 | -50.98713 | 35017 ft | 518 kts | 67° |
| 2026-05-06 16:17 | 51.78518 | -50.87942 | 35014 ft | 517 kts | 67° |
| 2026-05-06 16:17 | 51.81195 | -50.77175 | 35023 ft | 516 kts | 67° |
| 2026-05-06 16:18 | 51.83859 | -50.66407 | 35012 ft | 516 kts | 67° |
| 2026-05-06 16:18 | 51.86512 | -50.55630 | 35026 ft | 515 kts | 67° |
| 2026-05-06 16:19 | 51.89151 | -50.44856 | 35017 ft | 515 kts | 67° |
| 2026-05-06 16:19 | 51.91782 | -50.34065 | 35029 ft | 515 kts | 67° |
| 2026-05-06 16:20 | 51.94400 | -50.23272 | 35017 ft | 515 kts | 67° |
| 2026-05-06 16:20 | 51.97008 | -50.12468 | 35018 ft | 515 kts | 67° |
| 2026-05-06 16:21 | 51.99593 | -50.01646 | 35021 ft | 515 kts | 69° |
| 2026-05-06 16:21 | 52.01506 | -49.90452 | 35032 ft | 515 kts | 76° |
| 2026-05-06 16:22 | 52.03078 | -49.79111 | 35029 ft | 515 kts | 77° |
| 2026-05-06 16:22 | 52.04644 | -49.67748 | 35034 ft | 516 kts | 76° |
| 2026-05-06 16:23 | 52.06236 | -49.56391 | 35026 ft | 516 kts | 76° |
| 2026-05-06 16:23 | 52.07836 | -49.45024 | 35043 ft | 516 kts | 76° |
| 2026-05-06 16:24 | 52.09429 | -49.33643 | 35031 ft | 516 kts | 76° |
| 2026-05-06 16:24 | 52.10742 | -49.24182 | 35039 ft | 516 kts | 76° |
| 2026-05-06 16:25 | 52.11669 | -49.17456 | 35038 ft | 516 kts | 76° |
| 2026-05-06 16:25 | 52.13231 | -49.06056 | 35044 ft | 516 kts | 77° |
| 2026-05-06 16:26 | 52.14781 | -48.94650 | 35035 ft | 516 kts | 77° |
| 2026-05-06 16:26 | 52.16318 | -48.83255 | 35040 ft | 515 kts | 77° |
| 2026-05-06 16:27 | 52.17846 | -48.71842 | 35040 ft | 515 kts | 77° |
| 2026-05-06 16:27 | 52.19359 | -48.60441 | 35048 ft | 515 kts | 77° |
| 2026-05-06 16:28 | 52.20852 | -48.49111 | 35041 ft | 514 kts | 77° |
| 2026-05-06 16:28 | 52.22343 | -48.37704 | 35055 ft | 514 kts | 77° |
| 2026-05-06 16:29 | 52.23821 | -48.26297 | 35049 ft | 514 kts | 77° |
| 2026-05-06 16:29 | 52.25288 | -48.14888 | 35057 ft | 514 kts | 77° |
| 2026-05-06 16:30 | 52.26499 | -48.05401 | 35054 ft | 514 kts | 77° |
| 2026-05-06 16:30 | 52.28189 | -47.92051 | 35062 ft | 514 kts | 77° |
| 2026-05-06 16:31 | 52.29623 | -47.80619 | 35059 ft | 514 kts | 77° |
| 2026-05-06 16:31 | 52.31044 | -47.69189 | 35067 ft | 514 kts | 78° |
| 2026-05-06 16:32 | 52.32457 | -47.57740 | 35062 ft | 514 kts | 78° |
| 2026-05-06 16:32 | 52.33857 | -47.46291 | 35072 ft | 514 kts | 78° |
| 2026-05-06 16:33 | 52.35247 | -47.34825 | 35073 ft | 514 kts | 78° |
| 2026-05-06 16:34 | 52.37313 | -47.17604 | 35064 ft | 514 kts | 78° |
| 2026-05-06 16:34 | 52.38676 | -47.06111 | 35092 ft | 514 kts | 78° |
| 2026-05-06 16:35 | 52.40019 | -46.94693 | 35081 ft | 515 kts | 78° |
| 2026-05-06 16:35 | 52.41362 | -46.83172 | 35097 ft | 515 kts | 79° |
| 2026-05-06 16:36 | 52.42694 | -46.71646 | 35085 ft | 515 kts | 79° |
| 2026-05-06 16:36 | 52.44014 | -46.60112 | 35098 ft | 515 kts | 79° |
| 2026-05-06 16:37 | 52.45324 | -46.48570 | 35090 ft | 515 kts | 79° |
| 2026-05-06 16:37 | 52.46622 | -46.37019 | 35105 ft | 515 kts | 79° |
| 2026-05-06 16:38 | 52.47909 | -46.25466 | 35089 ft | 515 kts | 79° |
| 2026-05-06 16:38 | 52.49183 | -46.13918 | 35112 ft | 514 kts | 79° |
| 2026-05-06 16:39 | 52.50444 | -46.02375 | 35103 ft | 514 kts | 80° |
| 2026-05-06 16:39 | 52.51693 | -45.90838 | 35115 ft | 513 kts | 80° |
| 2026-05-06 16:40 | 52.52928 | -45.79315 | 35108 ft | 512 kts | 80° |
| 2026-05-06 16:40 | 52.54152 | -45.67796 | 35121 ft | 512 kts | 80° |
| 2026-05-06 16:41 | 52.55363 | -45.56281 | 35117 ft | 511 kts | 80° |
| 2026-05-06 16:41 | 52.56561 | -45.44770 | 35131 ft | 511 kts | 81° |
| 2026-05-06 16:42 | 52.57748 | -45.33262 | 35126 ft | 511 kts | 81° |
| 2026-05-06 16:42 | 52.58924 | -45.21745 | 35131 ft | 510 kts | 81° |
| 2026-05-06 16:43 | 52.60088 | -45.10226 | 35130 ft | 511 kts | 81° |
| 2026-05-06 16:43 | 52.61232 | -44.98784 | 35138 ft | 510 kts | 81° |
| 2026-05-06 16:44 | 52.62374 | -44.87251 | 35131 ft | 510 kts | 81° |
| 2026-05-06 16:44 | 52.63504 | -44.75724 | 35143 ft | 510 kts | 82° |
| 2026-05-06 16:45 | 52.64622 | -44.64193 | 35139 ft | 510 kts | 82° |
| 2026-05-06 16:45 | 52.65726 | -44.52688 | 35150 ft | 510 kts | 82° |
| 2026-05-06 16:46 | 52.66821 | -44.41160 | 35141 ft | 509 kts | 82° |
| 2026-05-06 16:46 | 52.67667 | -44.32160 | 35149 ft | 509 kts | 82° |
| 2026-05-06 16:47 | 52.68741 | -44.20632 | 35140 ft | 509 kts | 82° |
| 2026-05-06 16:47 | 52.69801 | -44.09120 | 35155 ft | 508 kts | 83° |
| 2026-05-06 16:48 | 52.70850 | -43.97602 | 35145 ft | 508 kts | 83° |
| 2026-05-06 16:48 | 52.71888 | -43.86087 | 35154 ft | 507 kts | 83° |
| 2026-05-06 16:49 | 52.72913 | -43.74580 | 35154 ft | 507 kts | 83° |
| 2026-05-06 16:49 | 52.73920 | -43.63141 | 35155 ft | 507 kts | 83° |
| 2026-05-06 16:50 | 52.74922 | -43.51633 | 35147 ft | 507 kts | 84° |
| 2026-05-06 16:50 | 52.75913 | -43.40121 | 35156 ft | 506 kts | 84° |
| 2026-05-06 16:51 | 52.76892 | -43.28609 | 35149 ft | 506 kts | 84° |
| 2026-05-06 16:51 | 52.77859 | -43.17102 | 35160 ft | 506 kts | 84° |
| 2026-05-06 16:52 | 52.78815 | -43.05588 | 35153 ft | 506 kts | 84° |
| 2026-05-06 16:52 | 52.79759 | -42.94083 | 35160 ft | 505 kts | 84° |
| 2026-05-06 16:53 | 52.80692 | -42.82570 | 35157 ft | 505 kts | 85° |
| 2026-05-06 16:53 | 52.81614 | -42.71060 | 35161 ft | 505 kts | 85° |
| 2026-05-06 16:54 | 52.82523 | -42.59548 | 35151 ft | 505 kts | 85° |
| 2026-05-06 16:54 | 52.83421 | -42.48045 | 35160 ft | 504 kts | 85° |
| 2026-05-06 16:55 | 52.84307 | -42.36548 | 35152 ft | 504 kts | 85° |
| 2026-05-06 16:55 | 52.85034 | -42.26994 | 35155 ft | 503 kts | 86° |
| 2026-05-06 16:56 | 52.85898 | -42.15514 | 35150 ft | 503 kts | 86° |
| 2026-05-06 16:56 | 52.86749 | -42.04039 | 35154 ft | 502 kts | 86° |
| 2026-05-06 16:57 | 52.87589 | -41.92574 | 35146 ft | 501 kts | 86° |
| 2026-05-06 16:57 | 52.88416 | -41.81122 | 35149 ft | 501 kts | 86° |
| 2026-05-06 16:58 | 52.89231 | -41.69681 | 35145 ft | 500 kts | 87° |
| 2026-05-06 16:58 | 52.90034 | -41.58256 | 35143 ft | 499 kts | 87° |
| 2026-05-06 16:59 | 52.90826 | -41.46830 | 35141 ft | 499 kts | 87° |
| 2026-05-06 16:59 | 52.91605 | -41.35422 | 35137 ft | 498 kts | 87° |
| 2026-05-06 17:00 | 52.92372 | -41.24023 | 35144 ft | 497 kts | 88° |
| 2026-05-06 17:00 | 52.93127 | -41.12634 | 35133 ft | 497 kts | 88° |
| 2026-05-06 17:01 | 52.93858 | -41.01325 | 35140 ft | 497 kts | 88° |
| 2026-05-06 17:01 | 52.94598 | -40.89936 | 35139 ft | 497 kts | 88° |
| 2026-05-06 17:02 | 52.95323 | -40.78534 | 35135 ft | 497 kts | 88° |
| 2026-05-06 17:02 | 52.96033 | -40.67162 | 35135 ft | 497 kts | 88° |
| 2026-05-06 17:03 | 52.96733 | -40.55766 | 35135 ft | 496 kts | 88° |
| 2026-05-06 17:03 | 52.97421 | -40.44377 | 35132 ft | 496 kts | 88° |
| 2026-05-06 17:04 | 52.98099 | -40.32995 | 35134 ft | 496 kts | 88° |
| 2026-05-06 17:04 | 52.98765 | -40.21617 | 35136 ft | 495 kts | 88° |
| 2026-05-06 17:05 | 52.99421 | -40.10248 | 35137 ft | 495 kts | 88° |
| 2026-05-06 17:05 | 53.00155 | -39.98882 | 35143 ft | 496 kts | 83° |
| 2026-05-06 17:06 | 53.01670 | -39.87682 | 35147 ft | 498 kts | 79° |
| 2026-05-06 17:06 | 53.03330 | -39.76519 | 35140 ft | 498 kts | 79° |
| 2026-05-06 17:07 | 53.04962 | -39.65339 | 35139 ft | 498 kts | 79° |
| 2026-05-06 17:07 | 53.06552 | -39.54147 | 35140 ft | 497 kts | 79° |
| 2026-05-06 17:08 | 53.08120 | -39.42946 | 35137 ft | 497 kts | 79° |
| 2026-05-06 17:08 | 53.09676 | -39.31741 | 35139 ft | 497 kts | 79° |
| 2026-05-06 17:09 | 53.11222 | -39.20535 | 35137 ft | 497 kts | 79° |
| 2026-05-06 17:09 | 53.12758 | -39.09328 | 35137 ft | 497 kts | 79° |
| 2026-05-06 17:10 | 53.14284 | -38.98106 | 35133 ft | 497 kts | 79° |
| 2026-05-06 17:10 | 53.15798 | -38.86886 | 35136 ft | 496 kts | 79° |
| 2026-05-06 17:11 | 53.17301 | -38.75665 | 35132 ft | 496 kts | 80° |
| 2026-05-06 17:11 | 53.18782 | -38.64520 | 35133 ft | 496 kts | 80° |
| 2026-05-06 17:12 | 53.20262 | -38.53303 | 35129 ft | 495 kts | 80° |
| 2026-05-06 17:12 | 53.21730 | -38.42081 | 35131 ft | 495 kts | 80° |
| 2026-05-06 17:13 | 53.23185 | -38.30873 | 35124 ft | 494 kts | 80° |
| 2026-05-06 17:13 | 53.24628 | -38.19665 | 35125 ft | 493 kts | 80° |
| 2026-05-06 17:14 | 53.26059 | -38.08469 | 35121 ft | 493 kts | 80° |
| 2026-05-06 17:14 | 53.27478 | -37.97269 | 35129 ft | 492 kts | 80° |
| 2026-05-06 17:15 | 53.28885 | -37.86080 | 35117 ft | 492 kts | 80° |
| 2026-05-06 17:15 | 53.30280 | -37.74895 | 35124 ft | 491 kts | 80° |
| 2026-05-06 17:16 | 53.31664 | -37.63708 | 35119 ft | 491 kts | 80° |
| 2026-05-06 17:16 | 53.33035 | -37.52529 | 35122 ft | 490 kts | 80° |
| 2026-05-06 17:17 | 53.34395 | -37.41350 | 35116 ft | 490 kts | 80° |
| 2026-05-06 17:17 | 53.35743 | -37.30181 | 35121 ft | 489 kts | 80° |
| 2026-05-06 17:18 | 53.37078 | -37.19019 | 35116 ft | 489 kts | 81° |
| 2026-05-06 17:18 | 53.38403 | -37.07852 | 35119 ft | 488 kts | 81° |
| 2026-05-06 17:19 | 53.39715 | -36.96702 | 35108 ft | 488 kts | 81° |
| 2026-05-06 17:19 | 53.41015 | -36.85553 | 35116 ft | 487 kts | 81° |
| 2026-05-06 17:20 | 53.42303 | -36.74413 | 35107 ft | 487 kts | 81° |
| 2026-05-06 17:20 | 53.43580 | -36.63278 | 35115 ft | 486 kts | 81° |
| 2026-05-06 17:21 | 53.44844 | -36.52154 | 35103 ft | 485 kts | 81° |
| 2026-05-06 17:21 | 53.46095 | -36.41050 | 35111 ft | 484 kts | 81° |
| 2026-05-06 17:22 | 53.47333 | -36.29956 | 35095 ft | 483 kts | 81° |
| 2026-05-06 17:22 | 53.48559 | -36.18877 | 35106 ft | 482 kts | 81° |
| 2026-05-06 17:23 | 53.49772 | -36.07820 | 35095 ft | 481 kts | 82° |
| 2026-05-06 17:23 | 53.50971 | -35.96782 | 35102 ft | 480 kts | 82° |
| 2026-05-06 17:24 | 53.52151 | -35.85824 | 35092 ft | 480 kts | 82° |
| 2026-05-06 17:24 | 53.53328 | -35.74800 | 35098 ft | 479 kts | 82° |
| 2026-05-06 17:24 | 53.53910 | -35.69285 | 35356 ft | 481 kts | 77° |
| 2026-05-06 17:25 | 53.54498 | -35.63702 | 35260 ft | 489 kts | 78° |
| 2026-05-06 17:25 | 53.55698 | -35.52293 | 35152 ft | 499 kts | 78° |
| 2026-05-06 17:26 | 53.56889 | -35.40812 | 35088 ft | 498 kts | 78° |
| 2026-05-06 17:26 | 53.58064 | -35.29358 | 35079 ft | 496 kts | 78° |
| 2026-05-06 17:27 | 53.59224 | -35.17947 | 35078 ft | 493 kts | 78° |
| 2026-05-06 17:27 | 53.60368 | -35.06586 | 35076 ft | 491 kts | 78° |
| 2026-05-06 17:28 | 53.61498 | -34.95250 | 35072 ft | 490 kts | 79° |
| 2026-05-06 17:28 | 53.62615 | -34.83937 | 35072 ft | 490 kts | 79° |
| 2026-05-06 17:29 | 53.63479 | -34.75104 | 35071 ft | 490 kts | 79° |
| 2026-05-06 17:29 | 53.64577 | -34.63778 | 35069 ft | 490 kts | 79° |
| 2026-05-06 17:30 | 53.65665 | -34.52438 | 35064 ft | 490 kts | 79° |
| 2026-05-06 17:30 | 53.66744 | -34.41078 | 35059 ft | 491 kts | 79° |
| 2026-05-06 17:31 | 53.67806 | -34.29777 | 35067 ft | 491 kts | 79° |
| 2026-05-06 17:31 | 53.68866 | -34.18379 | 35062 ft | 492 kts | 79° |
| 2026-05-06 17:32 | 53.69914 | -34.06975 | 35059 ft | 492 kts | 80° |
| 2026-05-06 17:32 | 53.70952 | -33.95567 | 35056 ft | 492 kts | 80° |
| 2026-05-06 17:33 | 53.71978 | -33.84162 | 35053 ft | 491 kts | 80° |
| 2026-05-06 17:33 | 53.72993 | -33.72756 | 35049 ft | 491 kts | 80° |
| 2026-05-06 17:34 | 53.73995 | -33.61362 | 35046 ft | 490 kts | 80° |
| 2026-05-06 17:34 | 53.74987 | -33.49969 | 35042 ft | 490 kts | 81° |
| 2026-05-06 17:35 | 53.75965 | -33.38592 | 35043 ft | 489 kts | 81° |
| 2026-05-06 17:35 | 53.76933 | -33.27217 | 35038 ft | 489 kts | 81° |
| 2026-05-06 17:36 | 53.78361 | -33.10164 | 35032 ft | 488 kts | 81° |
| 2026-05-06 17:36 | 53.79293 | -32.98878 | 35031 ft | 488 kts | 81° |
| 2026-05-06 17:37 | 53.80222 | -32.87503 | 35030 ft | 488 kts | 81° |
| 2026-05-06 17:37 | 53.81138 | -32.76133 | 35026 ft | 488 kts | 81° |
| 2026-05-06 17:38 | 53.82044 | -32.64750 | 35027 ft | 488 kts | 81° |
| 2026-05-06 17:38 | 53.82941 | -32.53366 | 35025 ft | 488 kts | 81° |
| 2026-05-06 17:39 | 53.83825 | -32.41975 | 35020 ft | 488 kts | 81° |
| 2026-05-06 17:39 | 53.84698 | -32.30584 | 35017 ft | 488 kts | 82° |
| 2026-05-06 17:40 | 53.85561 | -32.19188 | 35012 ft | 488 kts | 82° |
| 2026-05-06 17:40 | 53.86413 | -32.07792 | 35013 ft | 488 kts | 82° |
| 2026-05-06 17:41 | 53.87254 | -31.96392 | 35009 ft | 488 kts | 82° |
| 2026-05-06 17:41 | 53.88085 | -31.84976 | 35006 ft | 488 kts | 82° |
| 2026-05-06 17:42 | 53.88906 | -31.73547 | 35005 ft | 489 kts | 82° |
| 2026-05-06 17:42 | 53.89715 | -31.62106 | 35004 ft | 489 kts | 82° |
| 2026-05-06 17:43 | 53.90516 | -31.50653 | 35003 ft | 489 kts | 82° |
| 2026-05-06 17:43 | 53.91305 | -31.39191 | 35003 ft | 490 kts | 82° |
| 2026-05-06 17:44 | 53.91953 | -31.29655 | 35003 ft | 490 kts | 83° |
| 2026-05-06 17:44 | 53.92724 | -31.18168 | 34999 ft | 490 kts | 83° |
| 2026-05-06 17:45 | 53.93484 | -31.06661 | 35005 ft | 491 kts | 83° |
| 2026-05-06 17:45 | 53.94356 | -30.93270 | 35000 ft | 491 kts | 83° |
| 2026-05-06 17:46 | 53.94974 | -30.83613 | 35004 ft | 492 kts | 83° |
| 2026-05-06 17:46 | 53.95704 | -30.72061 | 35002 ft | 492 kts | 83° |
| 2026-05-06 17:47 | 53.96422 | -30.60509 | 35006 ft | 492 kts | 83° |
| 2026-05-06 17:47 | 53.97130 | -30.48941 | 35005 ft | 493 kts | 83° |
| 2026-05-06 17:48 | 53.97828 | -30.37354 | 35008 ft | 493 kts | 84° |
| 2026-05-06 17:48 | 53.98514 | -30.25760 | 35011 ft | 494 kts | 84° |
| 2026-05-06 17:49 | 53.99192 | -30.14146 | 35013 ft | 494 kts | 84° |
| 2026-05-06 17:49 | 53.99865 | -30.02525 | 35012 ft | 494 kts | 83° |
| 2026-05-06 17:50 | 54.01174 | -29.91074 | 35023 ft | 494 kts | 76° |
| 2026-05-06 17:50 | 54.02845 | -29.79739 | 35021 ft | 494 kts | 75° |
| 2026-05-06 17:51 | 54.04510 | -29.68380 | 35018 ft | 495 kts | 76° |
| 2026-05-06 17:51 | 54.06135 | -29.56993 | 35033 ft | 496 kts | 76° |
| 2026-05-06 17:52 | 54.07735 | -29.45569 | 35019 ft | 496 kts | 76° |
| 2026-05-06 17:52 | 54.09309 | -29.34230 | 35026 ft | 493 kts | 76° |
| 2026-05-06 17:53 | 54.10871 | -29.22897 | 35028 ft | 490 kts | 77° |
| 2026-05-06 17:53 | 54.12413 | -29.11641 | 35022 ft | 484 kts | 77° |
| 2026-05-06 17:54 | 54.13935 | -29.00439 | 35047 ft | 489 kts | 77° |
| 2026-05-06 17:54 | 54.15465 | -28.89094 | 35037 ft | 490 kts | 77° |
| 2026-05-06 17:55 | 54.16974 | -28.77828 | 35029 ft | 483 kts | 77° |
| 2026-05-06 17:55 | 54.18469 | -28.66570 | 35048 ft | 489 kts | 77° |
| 2026-05-06 17:56 | 54.19958 | -28.55271 | 35039 ft | 486 kts | 77° |
| 2026-05-06 17:56 | 54.21431 | -28.44004 | 35050 ft | 487 kts | 78° |
| 2026-05-06 17:57 | 54.22898 | -28.32696 | 35045 ft | 488 kts | 78° |
| 2026-05-06 17:57 | 54.24352 | -28.21396 | 35035 ft | 485 kts | 78° |
| 2026-05-06 17:58 | 54.25796 | -28.10085 | 35051 ft | 488 kts | 78° |
| 2026-05-06 17:58 | 54.27236 | -27.98714 | 35058 ft | 492 kts | 78° |
| 2026-05-06 17:59 | 54.28670 | -27.87299 | 35050 ft | 495 kts | 78° |
| 2026-05-06 17:59 | 54.30110 | -27.75745 | 35048 ft | 497 kts | 78° |
| 2026-05-06 18:00 | 54.31541 | -27.64166 | 35044 ft | 497 kts | 78° |
| 2026-05-06 18:00 | 54.32959 | -27.52587 | 35039 ft | 496 kts | 79° |
| 2026-05-06 18:01 | 54.34363 | -27.41029 | 35045 ft | 495 kts | 79° |
| 2026-05-06 18:01 | 54.35752 | -27.29494 | 35050 ft | 494 kts | 79° |
| 2026-05-06 18:02 | 54.37128 | -27.17968 | 35047 ft | 493 kts | 79° |
| 2026-05-06 18:02 | 54.38490 | -27.06462 | 35051 ft | 492 kts | 79° |
| 2026-05-06 18:03 | 54.39840 | -26.94949 | 35040 ft | 492 kts | 79° |
| 2026-05-06 18:03 | 54.41177 | -26.83458 | 35047 ft | 492 kts | 79° |
| 2026-05-06 18:04 | 54.42505 | -26.71936 | 35045 ft | 492 kts | 79° |
| 2026-05-06 18:04 | 54.43822 | -26.60408 | 35052 ft | 492 kts | 80° |
| 2026-05-06 18:05 | 54.45130 | -26.48853 | 35040 ft | 493 kts | 80° |
| 2026-05-06 18:05 | 54.46429 | -26.37277 | 35048 ft | 493 kts | 80° |
| 2026-05-06 18:06 | 54.47717 | -26.25693 | 35043 ft | 494 kts | 80° |
| 2026-05-06 18:06 | 54.48986 | -26.14170 | 35040 ft | 494 kts | 80° |
| 2026-05-06 18:07 | 54.50253 | -26.02563 | 35040 ft | 494 kts | 81° |
| 2026-05-06 18:07 | 54.51509 | -25.90940 | 35041 ft | 494 kts | 81° |
| 2026-05-06 18:08 | 54.52755 | -25.79302 | 35041 ft | 494 kts | 81° |
| 2026-05-06 18:08 | 54.53990 | -25.67658 | 35041 ft | 495 kts | 81° |
| 2026-05-06 18:09 | 54.55215 | -25.55996 | 35036 ft | 495 kts | 81° |
| 2026-05-06 18:09 | 54.56428 | -25.44331 | 35040 ft | 495 kts | 81° |
| 2026-05-06 18:10 | 54.57630 | -25.32658 | 35037 ft | 495 kts | 81° |
| 2026-05-06 18:10 | 54.58822 | -25.20969 | 35038 ft | 495 kts | 82° |
| 2026-05-06 18:11 | 54.60003 | -25.09269 | 35032 ft | 495 kts | 82° |
| 2026-05-06 18:11 | 54.61165 | -24.97641 | 35035 ft | 495 kts | 82° |
| 2026-05-06 18:12 | 54.62322 | -24.85938 | 35033 ft | 495 kts | 82° |
| 2026-05-06 18:12 | 54.63468 | -24.74230 | 35039 ft | 495 kts | 82° |
| 2026-05-06 18:13 | 54.64603 | -24.62508 | 35035 ft | 495 kts | 82° |
| 2026-05-06 18:13 | 54.65728 | -24.50768 | 35026 ft | 496 kts | 82° |
| 2026-05-06 18:14 | 54.66842 | -24.39025 | 35026 ft | 495 kts | 83° |
| 2026-05-06 18:14 | 54.67944 | -24.27275 | 35028 ft | 495 kts | 83° |
| 2026-05-06 18:15 | 54.69034 | -24.15522 | 35026 ft | 495 kts | 83° |
| 2026-05-06 18:15 | 54.70114 | -24.03758 | 35027 ft | 496 kts | 83° |
| 2026-05-06 18:16 | 54.71182 | -23.91987 | 35024 ft | 496 kts | 83° |
| 2026-05-06 18:16 | 54.72240 | -23.80192 | 35025 ft | 496 kts | 83° |
| 2026-05-06 18:17 | 54.73286 | -23.68399 | 35022 ft | 496 kts | 84° |
| 2026-05-06 18:17 | 54.74322 | -23.56586 | 35022 ft | 497 kts | 84° |
| 2026-05-06 18:18 | 54.75348 | -23.44759 | 35014 ft | 497 kts | 84° |
| 2026-05-06 18:18 | 54.76361 | -23.32924 | 35011 ft | 497 kts | 84° |
| 2026-05-06 18:19 | 54.77365 | -23.21071 | 35009 ft | 497 kts | 84° |
| 2026-05-06 18:19 | 54.78357 | -23.09214 | 35008 ft | 498 kts | 84° |
| 2026-05-06 18:20 | 54.79337 | -22.97342 | 35009 ft | 498 kts | 84° |
| 2026-05-06 18:20 | 54.80307 | -22.85460 | 35009 ft | 498 kts | 85° |
| 2026-05-06 18:21 | 54.81265 | -22.73570 | 35004 ft | 498 kts | 85° |
| 2026-05-06 18:21 | 54.82212 | -22.61667 | 34997 ft | 498 kts | 85° |
| 2026-05-06 18:22 | 54.83148 | -22.49756 | 34997 ft | 499 kts | 85° |
| 2026-05-06 18:22 | 54.83761 | -22.41859 | 34998 ft | 499 kts | 85° |
| 2026-05-06 18:23 | 54.84283 | -22.35093 | 34997 ft | 499 kts | 85° |
| 2026-05-06 18:23 | 54.85194 | -22.23148 | 34993 ft | 499 kts | 85° |
| 2026-05-06 18:24 | 54.86088 | -22.11283 | 34985 ft | 499 kts | 85° |
| 2026-05-06 18:24 | 54.86976 | -21.99322 | 34988 ft | 500 kts | 85° |
| 2026-05-06 18:25 | 54.87853 | -21.87351 | 34982 ft | 500 kts | 85° |
| 2026-05-06 18:25 | 54.88718 | -21.75368 | 34976 ft | 500 kts | 86° |
| 2026-05-06 18:26 | 54.89572 | -21.63370 | 34978 ft | 500 kts | 86° |
| 2026-05-06 18:26 | 54.90414 | -21.51368 | 34973 ft | 501 kts | 86° |
| 2026-05-06 18:27 | 54.91246 | -21.39350 | 34972 ft | 501 kts | 86° |
| 2026-05-06 18:27 | 54.92066 | -21.27322 | 34971 ft | 501 kts | 86° |
| 2026-05-06 18:28 | 54.92874 | -21.15290 | 34966 ft | 501 kts | 86° |
| 2026-05-06 18:28 | 54.93666 | -21.03320 | 34964 ft | 502 kts | 86° |
| 2026-05-06 18:29 | 54.94456 | -20.91189 | 34961 ft | 502 kts | 86° |
| 2026-05-06 18:29 | 54.95225 | -20.79200 | 34958 ft | 502 kts | 86° |
| 2026-05-06 18:30 | 54.95986 | -20.67131 | 34957 ft | 502 kts | 86° |
| 2026-05-06 18:30 | 54.96736 | -20.55054 | 34953 ft | 502 kts | 86° |
| 2026-05-06 18:31 | 54.97475 | -20.42965 | 34949 ft | 502 kts | 86° |
| 2026-05-06 18:31 | 54.98201 | -20.30875 | 34949 ft | 502 kts | 86° |
| 2026-05-06 18:32 | 54.98915 | -20.18779 | 34945 ft | 502 kts | 86° |
| 2026-05-06 18:32 | 54.99619 | -20.06673 | 34944 ft | 503 kts | 86° |
| 2026-05-06 18:33 | 55.00176 | -19.94553 | 34938 ft | 501 kts | 90° |
| 2026-05-06 18:33 | 55.00376 | -19.84476 | 34943 ft | 501 kts | 91° |
| 2026-05-06 18:34 | 55.00559 | -19.72337 | 34935 ft | 501 kts | 91° |
| 2026-05-06 18:34 | 55.00749 | -19.60196 | 34933 ft | 502 kts | 91° |
| 2026-05-06 18:35 | 55.00948 | -19.48042 | 34931 ft | 502 kts | 91° |
| 2026-05-06 18:35 | 55.01142 | -19.35881 | 34929 ft | 502 kts | 91° |
| 2026-05-06 18:36 | 55.01323 | -19.23740 | 34923 ft | 503 kts | 91° |
| 2026-05-06 18:36 | 55.01491 | -19.11565 | 34923 ft | 503 kts | 91° |
| 2026-05-06 18:37 | 55.01646 | -18.99380 | 34920 ft | 503 kts | 91° |
| 2026-05-06 18:37 | 55.01789 | -18.87195 | 34917 ft | 503 kts | 91° |
| 2026-05-06 18:38 | 55.01920 | -18.74998 | 34917 ft | 503 kts | 91° |
| 2026-05-06 18:38 | 55.02039 | -18.62795 | 34914 ft | 504 kts | 91° |
| 2026-05-06 18:39 | 55.02146 | -18.50591 | 34912 ft | 504 kts | 91° |
| 2026-05-06 18:40 | 55.02283 | -18.32275 | 34911 ft | 504 kts | 91° |
| 2026-05-06 18:40 | 55.02360 | -18.20059 | 34910 ft | 504 kts | 91° |
| 2026-05-06 18:41 | 55.02424 | -18.07830 | 34912 ft | 505 kts | 91° |
| 2026-05-06 18:41 | 55.02476 | -17.95594 | 34906 ft | 505 kts | 91° |
| 2026-05-06 18:42 | 55.02515 | -17.83355 | 34902 ft | 505 kts | 91° |
| 2026-05-06 18:42 | 55.02542 | -17.71106 | 34905 ft | 506 kts | 91° |
| 2026-05-06 18:43 | 55.02557 | -17.58850 | 34899 ft | 506 kts | 92° |
| 2026-05-06 18:43 | 55.02560 | -17.46584 | 34899 ft | 506 kts | 92° |
| 2026-05-06 18:44 | 55.02551 | -17.34313 | 34900 ft | 506 kts | 92° |
| 2026-05-06 18:44 | 55.02529 | -17.22132 | 34901 ft | 506 kts | 92° |
| 2026-05-06 18:45 | 55.02495 | -17.09857 | 34902 ft | 506 kts | 92° |
| 2026-05-06 18:45 | 55.02448 | -16.97589 | 34903 ft | 506 kts | 92° |
| 2026-05-06 18:46 | 55.02389 | -16.85320 | 34901 ft | 506 kts | 92° |
| 2026-05-06 18:46 | 55.02318 | -16.73058 | 34899 ft | 506 kts | 92° |
| 2026-05-06 18:47 | 55.02235 | -16.60788 | 34903 ft | 506 kts | 92° |
| 2026-05-06 18:47 | 55.02139 | -16.48531 | 34902 ft | 506 kts | 92° |
| 2026-05-06 18:48 | 55.02031 | -16.36268 | 34904 ft | 506 kts | 92° |
| 2026-05-06 18:48 | 55.01910 | -16.24008 | 34900 ft | 506 kts | 92° |
| 2026-05-06 18:49 | 55.01777 | -16.11749 | 34906 ft | 506 kts | 92° |
| 2026-05-06 18:49 | 55.01632 | -15.99493 | 34896 ft | 506 kts | 92° |
| 2026-05-06 18:50 | 55.01475 | -15.87234 | 34897 ft | 506 kts | 92° |
| 2026-05-06 18:50 | 55.01305 | -15.74980 | 34903 ft | 506 kts | 92° |
| 2026-05-06 18:51 | 55.01123 | -15.62726 | 34902 ft | 506 kts | 92° |
| 2026-05-06 18:51 | 55.00929 | -15.50475 | 34904 ft | 506 kts | 92° |
| 2026-05-06 18:52 | 55.00722 | -15.38226 | 34908 ft | 506 kts | 92° |
| 2026-05-06 18:52 | 55.00504 | -15.25987 | 34908 ft | 506 kts | 92° |
| 2026-05-06 18:53 | 55.00273 | -15.13748 | 34903 ft | 505 kts | 92° |
| 2026-05-06 18:53 | 55.00032 | -15.01512 | 34907 ft | 505 kts | 92° |
| 2026-05-06 18:54 | 54.99935 | -14.89357 | 34904 ft | 505 kts | 90° |
| 2026-05-06 18:54 | 55.00028 | -14.77121 | 34911 ft | 505 kts | 89° |
| 2026-05-06 18:55 | 55.00092 | -14.64886 | 34904 ft | 505 kts | 90° |
| 2026-05-06 18:55 | 55.00106 | -14.52645 | 34911 ft | 505 kts | 90° |
| 2026-05-06 18:56 | 55.00098 | -14.40409 | 34910 ft | 505 kts | 90° |
| 2026-05-06 18:56 | 55.00081 | -14.28167 | 34910 ft | 505 kts | 90° |
| 2026-05-06 18:57 | 55.00056 | -14.15934 | 34908 ft | 505 kts | 90° |
| 2026-05-06 18:57 | 54.99773 | -14.03719 | 34914 ft | 505 kts | 98° |
| 2026-05-06 18:58 | 54.98223 | -13.91829 | 34912 ft | 503 kts | 110° |
| 2026-05-06 18:58 | 54.95698 | -13.80482 | 34917 ft | 503 kts | 113° |
| 2026-05-06 18:59 | 54.93074 | -13.69212 | 34911 ft | 503 kts | 113° |
| 2026-05-06 18:59 | 54.90467 | -13.57927 | 34925 ft | 503 kts | 112° |
| 2026-05-06 19:00 | 54.87876 | -13.46635 | 34920 ft | 503 kts | 112° |
| 2026-05-06 19:00 | 54.85284 | -13.35352 | 34917 ft | 503 kts | 112° |
| 2026-05-06 19:01 | 54.82681 | -13.24081 | 34922 ft | 503 kts | 112° |
| 2026-05-06 19:01 | 54.80083 | -13.12902 | 34934 ft | 503 kts | 112° |
| 2026-05-06 19:02 | 54.77455 | -13.01658 | 34927 ft | 503 kts | 112° |
| 2026-05-06 19:02 | 54.74817 | -12.90431 | 34932 ft | 503 kts | 112° |
| 2026-05-06 19:03 | 54.72169 | -12.79218 | 34931 ft | 503 kts | 112° |
| 2026-05-06 19:03 | 54.69513 | -12.68030 | 34932 ft | 503 kts | 112° |
| 2026-05-06 19:04 | 54.66848 | -12.56860 | 34937 ft | 502 kts | 112° |
| 2026-05-06 19:04 | 54.64175 | -12.45718 | 34933 ft | 502 kts | 112° |
| 2026-05-06 19:05 | 54.61493 | -12.34595 | 34939 ft | 502 kts | 112° |
| 2026-05-06 19:05 | 54.58803 | -12.23494 | 34940 ft | 501 kts | 112° |
| 2026-05-06 19:06 | 54.56104 | -12.12411 | 34946 ft | 501 kts | 112° |
| 2026-05-06 19:06 | 54.53396 | -12.01350 | 34944 ft | 501 kts | 112° |
| 2026-05-06 19:07 | 54.50679 | -11.90308 | 34953 ft | 501 kts | 112° |
| 2026-05-06 19:07 | 54.47954 | -11.79284 | 34951 ft | 501 kts | 112° |
| 2026-05-06 19:08 | 54.45217 | -11.68273 | 34950 ft | 501 kts | 112° |
| 2026-05-06 19:08 | 54.42473 | -11.57287 | 34951 ft | 500 kts | 112° |
| 2026-05-06 19:09 | 54.39722 | -11.46324 | 34954 ft | 500 kts | 112° |
| 2026-05-06 19:09 | 54.36962 | -11.35383 | 34958 ft | 500 kts | 112° |
| 2026-05-06 19:10 | 54.34194 | -11.24464 | 34957 ft | 499 kts | 112° |
| 2026-05-06 19:10 | 54.31438 | -11.13643 | 34962 ft | 499 kts | 112° |
| 2026-05-06 19:11 | 54.28654 | -11.02768 | 34963 ft | 498 kts | 113° |
| 2026-05-06 19:11 | 54.25863 | -10.91916 | 34961 ft | 498 kts | 113° |
| 2026-05-06 19:12 | 54.23063 | -10.81084 | 34962 ft | 498 kts | 113° |
| 2026-05-06 19:12 | 54.20256 | -10.70275 | 34959 ft | 498 kts | 113° |
| 2026-05-06 19:13 | 54.17441 | -10.59487 | 34978 ft | 497 kts | 113° |
| 2026-05-06 19:13 | 54.14618 | -10.48719 | 34967 ft | 497 kts | 113° |
| 2026-05-06 19:14 | 54.11785 | -10.37965 | 34964 ft | 497 kts | 113° |
| 2026-05-06 19:14 | 54.08945 | -10.27239 | 34968 ft | 496 kts | 113° |
| 2026-05-06 19:15 | 54.06100 | -10.16539 | 34982 ft | 496 kts | 113° |
| 2026-05-06 19:15 | 54.03244 | -10.05854 | 34985 ft | 495 kts | 113° |
| 2026-05-06 19:16 | 54.00383 | -9.95197 | 34979 ft | 495 kts | 113° |
| 2026-05-06 19:16 | 53.97516 | -9.84566 | 34967 ft | 495 kts | 113° |
| 2026-05-06 19:17 | 53.94638 | -9.73946 | 34982 ft | 495 kts | 113° |
| 2026-05-06 19:17 | 53.91774 | -9.63423 | 34964 ft | 494 kts | 113° |
| 2026-05-06 19:18 | 53.88864 | -9.52781 | 34978 ft | 494 kts | 113° |
| 2026-05-06 19:18 | 53.85985 | -9.42303 | 34976 ft | 493 kts | 113° |
| 2026-05-06 19:19 | 53.83061 | -9.31710 | 34963 ft | 493 kts | 113° |
| 2026-05-06 19:19 | 53.80170 | -9.21280 | 34960 ft | 493 kts | 113° |
| 2026-05-06 19:20 | 53.77253 | -9.10807 | 34955 ft | 492 kts | 113° |
| 2026-05-06 19:20 | 53.74331 | -9.00361 | 34972 ft | 491 kts | 113° |
| 2026-05-06 19:21 | 53.71400 | -8.89933 | 34971 ft | 491 kts | 113° |
| 2026-05-06 19:21 | 53.68468 | -8.79546 | 34956 ft | 490 kts | 113° |
| 2026-05-06 19:22 | 53.65528 | -8.69175 | 34957 ft | 490 kts | 113° |
| 2026-05-06 19:22 | 53.62582 | -8.58832 | 34972 ft | 489 kts | 114° |
| 2026-05-06 19:23 | 53.60132 | -8.50262 | 34970 ft | 489 kts | 114° |
| 2026-05-06 19:23 | 53.57177 | -8.39969 | 34971 ft | 488 kts | 114° |
| 2026-05-06 19:24 | 53.54217 | -8.29704 | 34966 ft | 487 kts | 114° |
| 2026-05-06 19:24 | 53.51250 | -8.19459 | 34963 ft | 487 kts | 114° |
| 2026-05-06 19:25 | 53.48279 | -8.09242 | 34951 ft | 487 kts | 114° |
| 2026-05-06 19:25 | 53.45300 | -7.99043 | 34953 ft | 487 kts | 114° |
| 2026-05-06 19:26 | 53.42314 | -7.88860 | 34953 ft | 486 kts | 114° |
| 2026-05-06 19:26 | 53.39322 | -7.78699 | 34956 ft | 486 kts | 114° |
| 2026-05-06 19:27 | 53.36492 | -7.68425 | 34965 ft | 485 kts | 111° |
| 2026-05-06 19:27 | 53.33774 | -7.58092 | 34972 ft | 485 kts | 111° |
| 2026-05-06 19:28 | 53.31035 | -7.47781 | 34955 ft | 485 kts | 111° |
| 2026-05-06 19:28 | 53.28265 | -7.37511 | 34955 ft | 485 kts | 111° |
| 2026-05-06 19:29 | 53.25477 | -7.27262 | 34960 ft | 484 kts | 112° |
| 2026-05-06 19:29 | 53.22682 | -7.17033 | 34960 ft | 484 kts | 112° |
| 2026-05-06 19:30 | 53.19881 | -7.06826 | 34961 ft | 484 kts | 112° |
| 2026-05-06 19:30 | 53.17075 | -6.96641 | 34961 ft | 483 kts | 112° |
| 2026-05-06 19:31 | 53.14262 | -6.86471 | 34962 ft | 483 kts | 112° |
| 2026-05-06 19:31 | 53.10031 | -6.71262 | 34963 ft | 483 kts | 112° |
| 2026-05-06 19:32 | 53.07200 | -6.61144 | 34970 ft | 482 kts | 112° |
| 2026-05-06 19:32 | 53.04362 | -6.51039 | 34970 ft | 483 kts | 112° |
| 2026-05-06 19:33 | 53.01514 | -6.40946 | 34968 ft | 482 kts | 112° |
| 2026-05-06 19:33 | 52.98656 | -6.30860 | 34968 ft | 482 kts | 112° |
| 2026-05-06 19:34 | 52.95814 | -6.20875 | 34977 ft | 482 kts | 112° |
| 2026-05-06 19:34 | 52.92948 | -6.10847 | 34986 ft | 481 kts | 112° |
| 2026-05-06 19:35 | 52.90077 | -6.00844 | 34983 ft | 480 kts | 112° |
| 2026-05-06 19:35 | 52.87203 | -5.90871 | 34989 ft | 480 kts | 112° |
| 2026-05-06 19:36 | 52.84321 | -5.80914 | 34989 ft | 479 kts | 112° |
| 2026-05-06 19:36 | 52.81434 | -5.70979 | 34994 ft | 479 kts | 113° |
| 2026-05-06 19:37 | 52.78539 | -5.61059 | 34995 ft | 479 kts | 113° |
| 2026-05-06 19:37 | 52.75636 | -5.51148 | 34997 ft | 479 kts | 113° |
| 2026-05-06 19:38 | 52.72648 | -5.41306 | 35003 ft | 480 kts | 115° |
| 2026-05-06 19:38 | 52.69568 | -5.31535 | 35004 ft | 480 kts | 115° |
| 2026-05-06 19:39 | 52.66478 | -5.21760 | 35007 ft | 481 kts | 115° |
| 2026-05-06 19:39 | 52.63392 | -5.11980 | 35006 ft | 481 kts | 115° |
| 2026-05-06 19:40 | 52.60303 | -5.02203 | 35008 ft | 482 kts | 115° |
| 2026-05-06 19:40 | 52.57202 | -4.92426 | 35003 ft | 482 kts | 115° |
| 2026-05-06 19:41 | 52.54091 | -4.82658 | 35005 ft | 483 kts | 115° |
| 2026-05-06 19:41 | 52.50971 | -4.72902 | 35002 ft | 483 kts | 116° |
| 2026-05-06 19:42 | 52.47839 | -4.63147 | 35003 ft | 483 kts | 116° |
| 2026-05-06 19:42 | 52.44699 | -4.53407 | 35002 ft | 483 kts | 116° |
| 2026-05-06 19:43 | 52.41548 | -4.43672 | 34996 ft | 484 kts | 116° |
| 2026-05-06 19:43 | 52.38387 | -4.33944 | 35007 ft | 484 kts | 116° |
| 2026-05-06 19:44 | 52.35219 | -4.24232 | 35007 ft | 484 kts | 116° |
| 2026-05-06 19:44 | 52.32041 | -4.14529 | 35003 ft | 484 kts | 117° |
| 2026-05-06 19:45 | 52.28872 | -4.04889 | 35006 ft | 485 kts | 117° |
| 2026-05-06 19:45 | 52.25674 | -3.95203 | 35006 ft | 485 kts | 117° |
| 2026-05-06 19:46 | 52.22568 | -3.85830 | 35006 ft | 485 kts | 117° |
| 2026-05-06 19:46 | 52.19350 | -3.76157 | 35005 ft | 485 kts | 117° |
| 2026-05-06 19:47 | 52.16121 | -3.66487 | 35005 ft | 486 kts | 118° |
| 2026-05-06 19:47 | 52.12884 | -3.56831 | 35007 ft | 486 kts | 118° |
| 2026-05-06 19:48 | 52.09638 | -3.47186 | 35005 ft | 487 kts | 118° |
| 2026-05-06 19:48 | 52.06378 | -3.37538 | 35001 ft | 487 kts | 118° |
| 2026-05-06 19:49 | 52.03108 | -3.27895 | 35004 ft | 487 kts | 118° |
| 2026-05-06 19:49 | 51.99830 | -3.18267 | 35013 ft | 488 kts | 118° |
| 2026-05-06 19:50 | 51.96538 | -3.08637 | 35020 ft | 488 kts | 119° |
| 2026-05-06 19:50 | 51.93236 | -2.99015 | 35032 ft | 488 kts | 119° |
| 2026-05-06 19:51 | 51.89925 | -2.89401 | 35034 ft | 489 kts | 119° |
| 2026-05-06 19:51 | 51.86606 | -2.79802 | 35037 ft | 489 kts | 119° |
| 2026-05-06 19:52 | 51.83275 | -2.70205 | 35030 ft | 489 kts | 120° |
| 2026-05-06 19:52 | 51.79935 | -2.60619 | 35023 ft | 490 kts | 120° |
| 2026-05-06 19:53 | 51.76583 | -2.51035 | 35012 ft | 490 kts | 120° |
| 2026-05-06 19:53 | 51.73223 | -2.41463 | 35015 ft | 490 kts | 120° |
| 2026-05-06 19:54 | 51.69855 | -2.31905 | 35015 ft | 490 kts | 120° |
| 2026-05-06 19:54 | 51.66478 | -2.22360 | 35016 ft | 491 kts | 120° |
| 2026-05-06 19:55 | 51.63091 | -2.12820 | 35010 ft | 491 kts | 120° |
| 2026-05-06 19:55 | 51.59698 | -2.03299 | 35013 ft | 490 kts | 121° |
| 2026-05-06 19:56 | 51.56297 | -1.93792 | 35009 ft | 490 kts | 121° |
| 2026-05-06 19:56 | 51.52892 | -1.84307 | 35009 ft | 490 kts | 121° |
| 2026-05-06 19:57 | 51.49482 | -1.74838 | 35011 ft | 490 kts | 120° |
| 2026-05-06 19:57 | 51.46691 | -1.64960 | 35013 ft | 490 kts | 109° |
| 2026-05-06 19:58 | 51.45011 | -1.54381 | 35007 ft | 490 kts | 102° |
| 2026-05-06 19:58 | 51.43622 | -1.43610 | 35017 ft | 490 kts | 103° |
| 2026-05-06 19:59 | 51.42151 | -1.33060 | 35018 ft | 490 kts | 103° |
| 2026-05-06 19:59 | 51.40655 | -1.22416 | 35016 ft | 490 kts | 103° |
| 2026-05-06 20:00 | 51.39363 | -1.11715 | 35018 ft | 490 kts | 96° |
| 2026-05-06 20:00 | 51.38811 | -1.00832 | 35015 ft | 490 kts | 94° |
| 2026-05-06 20:01 | 51.38307 | -0.89942 | 35021 ft | 491 kts | 95° |
| 2026-05-06 20:01 | 51.37759 | -0.79048 | 35023 ft | 491 kts | 95° |
| 2026-05-06 20:02 | 51.37178 | -0.68143 | 35019 ft | 492 kts | 95° |
| 2026-05-06 20:02 | 51.36993 | -0.64743 | 35018 ft | 492 kts | 95° |
| 2026-05-06 20:03 | 51.36396 | -0.53840 | 35018 ft | 492 kts | 95° |
| 2026-05-06 20:03 | 51.35837 | -0.43780 | 35020 ft | 492 kts | 95° |
| 2026-05-06 20:04 | 51.35223 | -0.32876 | 35017 ft | 492 kts | 95° |
| 2026-05-06 20:04 | 51.34599 | -0.21975 | 35015 ft | 492 kts | 96° |
| 2026-05-06 20:05 | 51.33965 | -0.11086 | 35018 ft | 492 kts | 96° |
| 2026-05-06 20:05 | 51.33321 | -0.00190 | 35023 ft | 492 kts | 96° |
| 2026-05-06 20:06 | 51.32724 | 0.10693 | 35022 ft | 491 kts | 95° |
| 2026-05-06 20:06 | 51.32238 | 0.21584 | 35023 ft | 491 kts | 94° |
| 2026-05-06 20:07 | 51.31744 | 0.32395 | 34973 ft | 491 kts | 95° |
| 2026-05-06 20:07 | 51.31218 | 0.43261 | 34972 ft | 490 kts | 95° |
| 2026-05-06 20:08 | 51.30681 | 0.54117 | 34973 ft | 490 kts | 95° |
| 2026-05-06 20:08 | 51.30170 | 0.64965 | 34973 ft | 489 kts | 94° |
| 2026-05-06 20:09 | 51.29852 | 0.74046 | 34984 ft | 489 kts | 93° |
| 2026-05-06 20:09 | 51.29479 | 0.84895 | 34993 ft | 489 kts | 93° |
| 2026-05-06 20:10 | 51.29281 | 0.90257 | 34884 ft | 490 kts | 94° |
| 2026-05-06 20:10 | 51.29072 | 0.95768 | 34026 ft | 501 kts | 94° |
| 2026-05-06 20:10 | 51.28857 | 1.01318 | 33183 ft | 500 kts | 94° |
| 2026-05-06 20:10 | 51.28641 | 1.06806 | 32645 ft | 491 kts | 94° |
| 2026-05-06 20:11 | 51.28425 | 1.12222 | 32083 ft | 485 kts | 94° |
| 2026-05-06 20:11 | 51.28208 | 1.17565 | 31534 ft | 479 kts | 94° |
| 2026-05-06 20:11 | 51.27991 | 1.22844 | 31003 ft | 474 kts | 94° |
| 2026-05-06 20:11 | 51.27774 | 1.28068 | 30471 ft | 469 kts | 94° |
| 2026-05-06 20:12 | 51.27558 | 1.33238 | 29936 ft | 465 kts | 94° |
| 2026-05-06 20:12 | 51.27342 | 1.38367 | 29342 ft | 460 kts | 94° |
| 2026-05-06 20:12 | 51.27128 | 1.43429 | 28816 ft | 455 kts | 94° |
| 2026-05-06 20:12 | 51.26912 | 1.48437 | 28294 ft | 450 kts | 94° |
| 2026-05-06 20:13 | 51.26698 | 1.53389 | 27783 ft | 445 kts | 94° |
| 2026-05-06 20:13 | 51.26485 | 1.58294 | 27273 ft | 441 kts | 94° |
| 2026-05-06 20:13 | 51.26272 | 1.63153 | 26764 ft | 437 kts | 94° |
| 2026-05-06 20:13 | 51.26060 | 1.67971 | 26267 ft | 433 kts | 94° |
| 2026-05-06 20:14 | 51.25848 | 1.72748 | 25774 ft | 430 kts | 94° |
| 2026-05-06 20:14 | 51.25635 | 1.77488 | 25292 ft | 427 kts | 94° |
| 2026-05-06 20:14 | 51.25422 | 1.82195 | 24807 ft | 424 kts | 94° |
| 2026-05-06 20:14 | 51.25209 | 1.86867 | 24339 ft | 421 kts | 94° |
| 2026-05-06 20:15 | 51.24912 | 1.91496 | 23882 ft | 419 kts | 100° |
| 2026-05-06 20:15 | 51.24270 | 1.96028 | 23464 ft | 418 kts | 108° |
| 2026-05-06 20:15 | 51.23368 | 2.00424 | 22955 ft | 415 kts | 109° |
| 2026-05-06 20:15 | 51.22465 | 2.04768 | 22575 ft | 409 kts | 109° |
| 2026-05-06 20:16 | 51.21580 | 2.09037 | 22292 ft | 402 kts | 109° |
| 2026-05-06 20:16 | 51.20706 | 2.13273 | 22018 ft | 404 kts | 109° |
| 2026-05-06 20:16 | 51.19829 | 2.17542 | 21771 ft | 407 kts | 109° |
| 2026-05-06 20:16 | 51.18946 | 2.21844 | 21516 ft | 409 kts | 109° |
| 2026-05-06 20:17 | 51.18063 | 2.26152 | 21251 ft | 409 kts | 109° |
| 2026-05-06 20:17 | 51.17182 | 2.30448 | 20994 ft | 407 kts | 109° |
| 2026-05-06 20:17 | 51.16304 | 2.34725 | 20730 ft | 406 kts | 109° |
| 2026-05-06 20:17 | 51.15424 | 2.38999 | 20424 ft | 405 kts | 109° |
| 2026-05-06 20:18 | 51.14546 | 2.43260 | 20121 ft | 404 kts | 109° |
| 2026-05-06 20:18 | 51.13668 | 2.47505 | 19819 ft | 403 kts | 109° |
| 2026-05-06 20:18 | 51.12792 | 2.51735 | 19507 ft | 401 kts | 109° |
| 2026-05-06 20:18 | 51.11920 | 2.55938 | 19223 ft | 399 kts | 109° |
| 2026-05-06 20:19 | 51.11052 | 2.60111 | 18941 ft | 396 kts | 109° |
| 2026-05-06 20:19 | 51.10187 | 2.64262 | 18640 ft | 394 kts | 109° |
| 2026-05-06 20:19 | 51.09327 | 2.68382 | 18351 ft | 391 kts | 109° |
| 2026-05-06 20:19 | 51.08469 | 2.72481 | 18030 ft | 389 kts | 109° |
| 2026-05-06 20:20 | 51.07615 | 2.76552 | 17706 ft | 387 kts | 109° |
| 2026-05-06 20:20 | 51.06765 | 2.80597 | 17374 ft | 385 kts | 109° |
| 2026-05-06 20:20 | 51.05919 | 2.84617 | 17063 ft | 383 kts | 109° |
| 2026-05-06 20:20 | 51.05075 | 2.88616 | 16753 ft | 381 kts | 109° |
| 2026-05-06 20:21 | 51.04234 | 2.92597 | 16434 ft | 379 kts | 109° |
| 2026-05-06 20:21 | 51.03396 | 2.96553 | 16123 ft | 377 kts | 109° |
| 2026-05-06 20:21 | 51.02560 | 3.00489 | 15812 ft | 375 kts | 109° |
| 2026-05-06 20:21 | 51.01728 | 3.04405 | 15514 ft | 373 kts | 109° |
| 2026-05-06 20:22 | 51.00899 | 3.08296 | 15197 ft | 372 kts | 109° |
| 2026-05-06 20:22 | 51.00071 | 3.12174 | 14913 ft | 370 kts | 109° |
| 2026-05-06 20:22 | 50.99246 | 3.16034 | 14630 ft | 368 kts | 109° |
| 2026-05-06 20:22 | 50.98423 | 3.19876 | 14325 ft | 367 kts | 109° |
| 2026-05-06 20:23 | 50.97602 | 3.23698 | 14038 ft | 365 kts | 109° |
| 2026-05-06 20:23 | 50.96784 | 3.27504 | 13740 ft | 364 kts | 109° |
| 2026-05-06 20:23 | 50.95967 | 3.31295 | 13407 ft | 363 kts | 109° |
| 2026-05-06 20:23 | 50.95150 | 3.35079 | 13016 ft | 363 kts | 109° |
| 2026-05-06 20:24 | 50.94331 | 3.38867 | 12615 ft | 362 kts | 109° |
| 2026-05-06 20:24 | 50.93516 | 3.42625 | 12220 ft | 359 kts | 108° |
| 2026-05-06 20:24 | 50.92711 | 3.46335 | 11804 ft | 354 kts | 108° |
| 2026-05-06 20:24 | 50.91914 | 3.49997 | 11395 ft | 349 kts | 108° |
| 2026-05-06 20:25 | 50.91125 | 3.53619 | 10943 ft | 346 kts | 108° |
| 2026-05-06 20:25 | 50.90344 | 3.57199 | 10565 ft | 341 kts | 108° |
| 2026-05-06 20:25 | 50.89580 | 3.60696 | 10382 ft | 330 kts | 108° |
| 2026-05-06 20:25 | 50.88842 | 3.64060 | 10242 ft | 316 kts | 108° |
| 2026-05-06 20:26 | 50.88149 | 3.67216 | 10060 ft | 293 kts | 108° |
| 2026-05-06 20:26 | 50.87480 | 3.70261 | 9950 ft | 292 kts | 108° |
| 2026-05-06 20:26 | 50.86817 | 3.73279 | 9733 ft | 289 kts | 108° |
| 2026-05-06 20:26 | 50.86160 | 3.76268 | 9337 ft | 287 kts | 108° |
| 2026-05-06 20:27 | 50.85504 | 3.79245 | 8890 ft | 287 kts | 108° |
| 2026-05-06 20:27 | 50.84848 | 3.82218 | 8487 ft | 285 kts | 108° |
| 2026-05-06 20:27 | 50.84195 | 3.85170 | 8097 ft | 283 kts | 108° |
| 2026-05-06 20:27 | 50.83546 | 3.88100 | 7703 ft | 282 kts | 108° |
| 2026-05-06 20:28 | 50.82899 | 3.91017 | 7326 ft | 280 kts | 108° |
| 2026-05-06 20:28 | 50.82255 | 3.93918 | 6930 ft | 279 kts | 108° |
| 2026-05-06 20:28 | 50.81613 | 3.96804 | 6563 ft | 277 kts | 108° |
| 2026-05-06 20:28 | 50.80976 | 3.99664 | 6135 ft | 271 kts | 108° |
| 2026-05-06 20:29 | 50.80355 | 4.02447 | 5358 ft | 268 kts | 108° |
| 2026-05-06 20:29 | 50.79745 | 4.05177 | 4541 ft | 266 kts | 107° |
| 2026-05-06 20:29 | 50.79135 | 4.07904 | 3903 ft | 258 kts | 107° |
| 2026-05-06 20:29 | 50.78552 | 4.10505 | 3430 ft | 246 kts | 107° |
| 2026-05-06 20:30 | 50.77983 | 4.13043 | 3135 ft | 242 kts | 107° |
| 2026-05-06 20:30 | 50.76900 | 4.17869 | 3042 ft | 231 kts | 107° |
| 2026-05-06 20:30 | 50.76362 | 4.20266 | 3037 ft | 231 kts | 107° |
| 2026-05-06 20:31 | 50.75826 | 4.22646 | 3035 ft | 230 kts | 107° |
| 2026-05-06 20:31 | 50.75291 | 4.25021 | 3025 ft | 229 kts | 107° |
| 2026-05-06 20:31 | 50.74763 | 4.27363 | 3011 ft | 222 kts | 107° |
| 2026-05-06 20:31 | 50.74257 | 4.29600 | 3008 ft | 211 kts | 107° |
| 2026-05-06 20:32 | 50.73768 | 4.31761 | 3062 ft | 209 kts | 107° |
| 2026-05-06 20:32 | 50.73274 | 4.33947 | 3039 ft | 212 kts | 107° |
| 2026-05-06 20:32 | 50.72778 | 4.36134 | 3032 ft | 211 kts | 107° |
| 2026-05-06 20:32 | 50.72322 | 4.38317 | 3021 ft | 206 kts | 96° |
| 2026-05-06 20:33 | 50.72516 | 4.40437 | 3017 ft | 191 kts | 56° |
| 2026-05-06 20:33 | 50.73437 | 4.41783 | 3049 ft | 177 kts | 29° |
| 2026-05-06 20:33 | 50.74512 | 4.42748 | 3041 ft | 178 kts | 24° |
| 2026-05-06 20:33 | 50.75654 | 4.43515 | 2942 ft | 181 kts | 20° |
| 2026-05-06 20:34 | 50.76826 | 4.44220 | 2678 ft | 176 kts | 18° |
| 2026-05-06 20:34 | 50.77956 | 4.44762 | 2439 ft | 162 kts | 15° |
| 2026-05-06 20:34 | 50.79009 | 4.45202 | 2267 ft | 156 kts | 15° |
| 2026-05-06 20:34 | 50.80064 | 4.45632 | 2057 ft | 155 kts | 15° |
| 2026-05-06 20:35 | 50.81080 | 4.46045 | 1814 ft | 146 kts | 15° |
| 2026-05-06 20:35 | 50.82033 | 4.46432 | 1615 ft | 140 kts | 16° |
| 2026-05-06 20:35 | 50.82972 | 4.46814 | 1440 ft | 140 kts | 15° |
| 2026-05-06 20:35 | 50.83915 | 4.47195 | 1228 ft | 141 kts | 15° |
| 2026-05-06 20:36 | 50.84864 | 4.47578 | 1019 ft | 142 kts | 15° |
| 2026-05-06 20:36 | 50.85820 | 4.47962 | 828 ft | 142 kts | 15° |
| 2026-05-06 20:36 | 50.86773 | 4.48360 | 634 ft | 141 kts | 15° |
| 2026-05-06 20:36 | 50.87722 | 4.48750 | 419 ft | 140 kts | 14° |
| 2026-05-06 20:37 | 50.88670 | 4.49134 | 240 ft | 142 kts | 14° |
| 2026-05-06 20:37 | 50.89598 | 4.49511 | 158 ft | 124 kts | 14° |
| 2026-05-06 20:37 | 50.90255 | 4.49778 | 145 ft | 71 kts | 14° |
| 2026-05-06 20:37 | 50.90570 | 4.49905 | 141 ft | 34 kts | 12° |
| 2026-05-06 20:38 | 50.90796 | 4.49910 | 138 ft | 27 kts | 349° |
| 2026-05-06 20:38 | 50.90869 | 4.49839 | 144 ft | 0 kts | 293° |
| 2026-05-06 20:39 | 50.90870 | 4.49835 | 144 ft | 2 kts | 293° |
| 2026-05-06 20:39 | 50.90888 | 4.49764 | 145 ft | 12 kts | 291° |
| 2026-05-06 20:40 | 50.90881 | 4.49606 | 145 ft | 15 kts | 243° |
| 2026-05-06 20:40 | 50.90834 | 4.49454 | 146 ft | 15 kts | 244° |
| 2026-05-06 20:40 | 50.90786 | 4.49303 | 146 ft | 15 kts | 243° |
| 2026-05-06 20:40 | 50.90744 | 4.49147 | 146 ft | 15 kts | 247° |
| 2026-05-06 20:41 | 50.90703 | 4.48992 | 146 ft | 15 kts | 244° |
| 2026-05-06 20:41 | 50.90649 | 4.48812 | 146 ft | 22 kts | 246° |
| 2026-05-06 20:41 | 50.90585 | 4.48591 | 146 ft | 22 kts | 245° |
| 2026-05-06 20:41 | 50.90522 | 4.48371 | 147 ft | 22 kts | 245° |
| 2026-05-06 20:42 | 50.90457 | 4.48151 | 147 ft | 22 kts | 245° |
| 2026-05-06 20:42 | 50.90395 | 4.47931 | 147 ft | 22 kts | 246° |
| 2026-05-06 20:42 | 50.90333 | 4.47712 | 146 ft | 22 kts | 245° |
| 2026-05-06 20:42 | 50.90270 | 4.47495 | 147 ft | 22 kts | 245° |
| 2026-05-06 20:43 | 50.90207 | 4.47277 | 147 ft | 22 kts | 245° |
| 2026-05-06 20:43 | 50.90189 | 4.47067 | 146 ft | 19 kts | 295° |
| 2026-05-06 20:43 | 50.90250 | 4.46859 | 140 ft | 22 kts | 297° |
| 2026-05-06 20:43 | 50.90321 | 4.46637 | 146 ft | 27 kts | 297° |
| 2026-05-06 20:44 | 50.90348 | 4.46353 | 148 ft | 24 kts | 248° |
| 2026-05-06 20:44 | 50.90292 | 4.46126 | 148 ft | 22 kts | 252° |
| 2026-05-06 20:44 | 50.90232 | 4.45901 | 148 ft | 22 kts | 245° |
| 2026-05-06 20:44 | 50.90174 | 4.45703 | 148 ft | 14 kts | 245° |
| 2026-05-06 20:45 | 50.90172 | 4.45584 | 148 ft | 11 kts | 322° |
| 2026-05-06 20:45 | 50.90220 | 4.45548 | 148 ft | 4 kts | 335° |
| 2026-05-06 20:45 | 50.90230 | 4.45540 | 148 ft | 0 kts | 335° |